<?xml version="1.0" encoding="UTF-8" standalone="no" ?>
<gpx xmlns="http://www.topografix.com/GPX/1/1" xmlns:xsi="http://www.w3.org/2001/XMLSchema-instance" xsi:schemaLocation="http://www.topografix.com/GPX/1/1 http://www.topografix.com/GPX/1/1/gpx.xsd" version="1.1" creator="VisuGPX - https://www.visugpx.com">
  <metadata>
    <name>2021-02-28 Vlmnt-Teting-Guessling....</name>
  </metadata>
  <trk>
    <name><![CDATA[2021-02-28 11:16:51]]></name>
    <trkseg>
      <trkpt lat="49.08715" lon="6.69359">
        <ele>347.17</ele>
        <time>2021-02-28T06:02:12Z</time>
      </trkpt>
      <trkpt lat="49.08716" lon="6.69359">
        <ele>347.17</ele>
        <time>2021-02-28T06:02:13Z</time>
      </trkpt>
      <trkpt lat="49.08716" lon="6.69359">
        <ele>305.84</ele>
        <time>2021-02-28T06:02:20Z</time>
      </trkpt>
      <trkpt lat="49.08716" lon="6.69359">
        <ele>307.28</ele>
        <time>2021-02-28T06:02:21Z</time>
      </trkpt>
      <trkpt lat="49.08719" lon="6.69363">
        <ele>307.28</ele>
        <time>2021-02-28T06:02:34Z</time>
      </trkpt>
      <trkpt lat="49.08727" lon="6.69353">
        <ele>307.76</ele>
        <time>2021-02-28T06:02:43Z</time>
      </trkpt>
      <trkpt lat="49.08744" lon="6.69319">
        <ele>306.32</ele>
        <time>2021-02-28T06:03:08Z</time>
      </trkpt>
      <trkpt lat="49.08751" lon="6.6931">
        <ele>306.32</ele>
        <time>2021-02-28T06:03:24Z</time>
      </trkpt>
      <trkpt lat="49.0877" lon="6.6929">
        <ele>307.28</ele>
        <time>2021-02-28T06:03:45Z</time>
      </trkpt>
      <trkpt lat="49.08771" lon="6.69291">
        <ele>306.32</ele>
        <time>2021-02-28T06:04:11Z</time>
      </trkpt>
      <trkpt lat="49.08783" lon="6.69278">
        <ele>306.8</ele>
        <time>2021-02-28T06:04:28Z</time>
      </trkpt>
      <trkpt lat="49.08808" lon="6.69253">
        <ele>308.72</ele>
        <time>2021-02-28T06:04:51Z</time>
      </trkpt>
      <trkpt lat="49.08835" lon="6.69225">
        <ele>311.12</ele>
        <time>2021-02-28T06:05:14Z</time>
      </trkpt>
      <trkpt lat="49.08854" lon="6.69211">
        <ele>312.09</ele>
        <time>2021-02-28T06:05:34Z</time>
      </trkpt>
      <trkpt lat="49.08855" lon="6.69211">
        <ele>312.09</ele>
        <time>2021-02-28T06:05:37Z</time>
      </trkpt>
      <trkpt lat="49.08875" lon="6.69189">
        <ele>314.01</ele>
        <time>2021-02-28T06:05:58Z</time>
      </trkpt>
      <trkpt lat="49.08893" lon="6.69172">
        <ele>315.93</ele>
        <time>2021-02-28T06:06:17Z</time>
      </trkpt>
      <trkpt lat="49.08912" lon="6.69151">
        <ele>319.3</ele>
        <time>2021-02-28T06:06:35Z</time>
      </trkpt>
      <trkpt lat="49.08938" lon="6.69127">
        <ele>321.22</ele>
        <time>2021-02-28T06:06:57Z</time>
      </trkpt>
      <trkpt lat="49.08957" lon="6.69104">
        <ele>322.18</ele>
        <time>2021-02-28T06:07:14Z</time>
      </trkpt>
      <trkpt lat="49.08977" lon="6.69078">
        <ele>324.1</ele>
        <time>2021-02-28T06:07:33Z</time>
      </trkpt>
      <trkpt lat="49.09" lon="6.69038">
        <ele>326.99</ele>
        <time>2021-02-28T06:07:58Z</time>
      </trkpt>
      <trkpt lat="49.09022" lon="6.69006">
        <ele>328.91</ele>
        <time>2021-02-28T06:08:21Z</time>
      </trkpt>
      <trkpt lat="49.09049" lon="6.68966">
        <ele>331.79</ele>
        <time>2021-02-28T06:08:48Z</time>
      </trkpt>
      <trkpt lat="49.09066" lon="6.68935">
        <ele>334.68</ele>
        <time>2021-02-28T06:09:06Z</time>
      </trkpt>
      <trkpt lat="49.09094" lon="6.68893">
        <ele>337.08</ele>
        <time>2021-02-28T06:09:35Z</time>
      </trkpt>
      <trkpt lat="49.09096" lon="6.6889">
        <ele>337.08</ele>
        <time>2021-02-28T06:09:37Z</time>
      </trkpt>
      <trkpt lat="49.09091" lon="6.68879">
        <ele>338.04</ele>
        <time>2021-02-28T06:09:44Z</time>
      </trkpt>
      <trkpt lat="49.09061" lon="6.68872">
        <ele>337.08</ele>
        <time>2021-02-28T06:10:06Z</time>
      </trkpt>
      <trkpt lat="49.09026" lon="6.68863">
        <ele>335.16</ele>
        <time>2021-02-28T06:10:32Z</time>
      </trkpt>
      <trkpt lat="49.09004" lon="6.68845">
        <ele>333.71</ele>
        <time>2021-02-28T06:10:53Z</time>
      </trkpt>
      <trkpt lat="49.09009" lon="6.68797">
        <ele>334.68</ele>
        <time>2021-02-28T06:11:16Z</time>
      </trkpt>
      <trkpt lat="49.09013" lon="6.68742">
        <ele>335.16</ele>
        <time>2021-02-28T06:11:42Z</time>
      </trkpt>
      <trkpt lat="49.09013" lon="6.68689">
        <ele>336.6</ele>
        <time>2021-02-28T06:12:07Z</time>
      </trkpt>
      <trkpt lat="49.09007" lon="6.68636">
        <ele>339</ele>
        <time>2021-02-28T06:12:32Z</time>
      </trkpt>
      <trkpt lat="49.08997" lon="6.68583">
        <ele>340.44</ele>
        <time>2021-02-28T06:12:59Z</time>
      </trkpt>
      <trkpt lat="49.0898" lon="6.68534">
        <ele>344.29</ele>
        <time>2021-02-28T06:13:25Z</time>
      </trkpt>
      <trkpt lat="49.08961" lon="6.68498">
        <ele>347.17</ele>
        <time>2021-02-28T06:13:47Z</time>
      </trkpt>
      <trkpt lat="49.08938" lon="6.68463">
        <ele>348.13</ele>
        <time>2021-02-28T06:14:11Z</time>
      </trkpt>
      <trkpt lat="49.0892" lon="6.68437">
        <ele>351.5</ele>
        <time>2021-02-28T06:14:29Z</time>
      </trkpt>
      <trkpt lat="49.08892" lon="6.6841">
        <ele>351.98</ele>
        <time>2021-02-28T06:14:51Z</time>
      </trkpt>
      <trkpt lat="49.0888" lon="6.68401">
        <ele>355.34</ele>
        <time>2021-02-28T06:15:01Z</time>
      </trkpt>
      <trkpt lat="49.08855" lon="6.68388">
        <ele>355.83</ele>
        <time>2021-02-28T06:15:21Z</time>
      </trkpt>
      <trkpt lat="49.08828" lon="6.68375">
        <ele>358.71</ele>
        <time>2021-02-28T06:15:42Z</time>
      </trkpt>
      <trkpt lat="49.08798" lon="6.68361">
        <ele>359.67</ele>
        <time>2021-02-28T06:16:04Z</time>
      </trkpt>
      <trkpt lat="49.08776" lon="6.68351">
        <ele>363.04</ele>
        <time>2021-02-28T06:16:21Z</time>
      </trkpt>
      <trkpt lat="49.08746" lon="6.68338">
        <ele>364</ele>
        <time>2021-02-28T06:16:43Z</time>
      </trkpt>
      <trkpt lat="49.08716" lon="6.68318">
        <ele>364.48</ele>
        <time>2021-02-28T06:17:06Z</time>
      </trkpt>
      <trkpt lat="49.08687" lon="6.68288">
        <ele>367.36</ele>
        <time>2021-02-28T06:17:32Z</time>
      </trkpt>
      <trkpt lat="49.08664" lon="6.68259">
        <ele>367.36</ele>
        <time>2021-02-28T06:17:53Z</time>
      </trkpt>
      <trkpt lat="49.08644" lon="6.68222">
        <ele>368.8</ele>
        <time>2021-02-28T06:18:16Z</time>
      </trkpt>
      <trkpt lat="49.08629" lon="6.68188">
        <ele>370.24</ele>
        <time>2021-02-28T06:18:35Z</time>
      </trkpt>
      <trkpt lat="49.08615" lon="6.68143">
        <ele>369.76</ele>
        <time>2021-02-28T06:19:00Z</time>
      </trkpt>
      <trkpt lat="49.08606" lon="6.68099">
        <ele>369.76</ele>
        <time>2021-02-28T06:19:22Z</time>
      </trkpt>
      <trkpt lat="49.08601" lon="6.68043">
        <ele>369.28</ele>
        <time>2021-02-28T06:19:48Z</time>
      </trkpt>
      <trkpt lat="49.08601" lon="6.67993">
        <ele>368.32</ele>
        <time>2021-02-28T06:20:11Z</time>
      </trkpt>
      <trkpt lat="49.08597" lon="6.67936">
        <ele>368.8</ele>
        <time>2021-02-28T06:20:36Z</time>
      </trkpt>
      <trkpt lat="49.08591" lon="6.67888">
        <ele>367.84</ele>
        <time>2021-02-28T06:20:58Z</time>
      </trkpt>
      <trkpt lat="49.08583" lon="6.67841">
        <ele>367.36</ele>
        <time>2021-02-28T06:21:20Z</time>
      </trkpt>
      <trkpt lat="49.08572" lon="6.67791">
        <ele>366.88</ele>
        <time>2021-02-28T06:21:44Z</time>
      </trkpt>
      <trkpt lat="49.08561" lon="6.67753">
        <ele>365.92</ele>
        <time>2021-02-28T06:22:03Z</time>
      </trkpt>
      <trkpt lat="49.08549" lon="6.67708">
        <ele>365.44</ele>
        <time>2021-02-28T06:22:26Z</time>
      </trkpt>
      <trkpt lat="49.08538" lon="6.67665">
        <ele>365.44</ele>
        <time>2021-02-28T06:22:48Z</time>
      </trkpt>
      <trkpt lat="49.08525" lon="6.67621">
        <ele>364.96</ele>
        <time>2021-02-28T06:23:08Z</time>
      </trkpt>
      <trkpt lat="49.08514" lon="6.6758">
        <ele>365.44</ele>
        <time>2021-02-28T06:23:28Z</time>
      </trkpt>
      <trkpt lat="49.08502" lon="6.67533">
        <ele>364.96</ele>
        <time>2021-02-28T06:23:49Z</time>
      </trkpt>
      <trkpt lat="49.08489" lon="6.6749">
        <ele>365.44</ele>
        <time>2021-02-28T06:24:11Z</time>
      </trkpt>
      <trkpt lat="49.08479" lon="6.67457">
        <ele>364.48</ele>
        <time>2021-02-28T06:24:27Z</time>
      </trkpt>
      <trkpt lat="49.08467" lon="6.67414">
        <ele>364.48</ele>
        <time>2021-02-28T06:24:49Z</time>
      </trkpt>
      <trkpt lat="49.08454" lon="6.67368">
        <ele>364</ele>
        <time>2021-02-28T06:25:11Z</time>
      </trkpt>
      <trkpt lat="49.08438" lon="6.67319">
        <ele>364</ele>
        <time>2021-02-28T06:25:34Z</time>
      </trkpt>
      <trkpt lat="49.08426" lon="6.67277">
        <ele>364.48</ele>
        <time>2021-02-28T06:25:55Z</time>
      </trkpt>
      <trkpt lat="49.08416" lon="6.67238">
        <ele>363.52</ele>
        <time>2021-02-28T06:26:15Z</time>
      </trkpt>
      <trkpt lat="49.08406" lon="6.67196">
        <ele>363.04</ele>
        <time>2021-02-28T06:26:35Z</time>
      </trkpt>
      <trkpt lat="49.08395" lon="6.67153">
        <ele>363.04</ele>
        <time>2021-02-28T06:26:56Z</time>
      </trkpt>
      <trkpt lat="49.0838" lon="6.67109">
        <ele>363.04</ele>
        <time>2021-02-28T06:27:16Z</time>
      </trkpt>
      <trkpt lat="49.08365" lon="6.67058">
        <ele>362.07</ele>
        <time>2021-02-28T06:27:42Z</time>
      </trkpt>
      <trkpt lat="49.08351" lon="6.6701">
        <ele>362.07</ele>
        <time>2021-02-28T06:28:06Z</time>
      </trkpt>
      <trkpt lat="49.08341" lon="6.66968">
        <ele>362.07</ele>
        <time>2021-02-28T06:28:25Z</time>
      </trkpt>
      <trkpt lat="49.0834" lon="6.66927">
        <ele>362.55</ele>
        <time>2021-02-28T06:28:44Z</time>
      </trkpt>
      <trkpt lat="49.0834" lon="6.66887">
        <ele>362.55</ele>
        <time>2021-02-28T06:29:02Z</time>
      </trkpt>
      <trkpt lat="49.08339" lon="6.66846">
        <ele>362.07</ele>
        <time>2021-02-28T06:29:21Z</time>
      </trkpt>
      <trkpt lat="49.08334" lon="6.66801">
        <ele>362.07</ele>
        <time>2021-02-28T06:29:41Z</time>
      </trkpt>
      <trkpt lat="49.08322" lon="6.66759">
        <ele>361.59</ele>
        <time>2021-02-28T06:30:02Z</time>
      </trkpt>
      <trkpt lat="49.0831" lon="6.66727">
        <ele>361.11</ele>
        <time>2021-02-28T06:30:19Z</time>
      </trkpt>
      <trkpt lat="49.08299" lon="6.66695">
        <ele>360.15</ele>
        <time>2021-02-28T06:30:36Z</time>
      </trkpt>
      <trkpt lat="49.08283" lon="6.66672">
        <ele>361.59</ele>
        <time>2021-02-28T06:30:52Z</time>
      </trkpt>
      <trkpt lat="49.08276" lon="6.66648">
        <ele>364.48</ele>
        <time>2021-02-28T06:31:04Z</time>
      </trkpt>
      <trkpt lat="49.08274" lon="6.66643">
        <ele>364.96</ele>
        <time>2021-02-28T06:31:08Z</time>
      </trkpt>
      <trkpt lat="49.08262" lon="6.66614">
        <ele>366.88</ele>
        <time>2021-02-28T06:31:24Z</time>
      </trkpt>
      <trkpt lat="49.08249" lon="6.66579">
        <ele>368.32</ele>
        <time>2021-02-28T06:31:41Z</time>
      </trkpt>
      <trkpt lat="49.08246" lon="6.66563">
        <ele>368.32</ele>
        <time>2021-02-28T06:31:49Z</time>
      </trkpt>
      <trkpt lat="49.08234" lon="6.66535">
        <ele>370.24</ele>
        <time>2021-02-28T06:32:05Z</time>
      </trkpt>
      <trkpt lat="49.08229" lon="6.66522">
        <ele>368.8</ele>
        <time>2021-02-28T06:32:12Z</time>
      </trkpt>
      <trkpt lat="49.08217" lon="6.66499">
        <ele>368.8</ele>
        <time>2021-02-28T06:32:25Z</time>
      </trkpt>
      <trkpt lat="49.08215" lon="6.66485">
        <ele>369.76</ele>
        <time>2021-02-28T06:32:32Z</time>
      </trkpt>
      <trkpt lat="49.08207" lon="6.66473">
        <ele>369.76</ele>
        <time>2021-02-28T06:32:36Z</time>
      </trkpt>
      <trkpt lat="49.082" lon="6.66458">
        <ele>367.84</ele>
        <time>2021-02-28T06:32:43Z</time>
      </trkpt>
      <trkpt lat="49.0819" lon="6.66443">
        <ele>368.32</ele>
        <time>2021-02-28T06:32:51Z</time>
      </trkpt>
      <trkpt lat="49.08178" lon="6.66418">
        <ele>366.4</ele>
        <time>2021-02-28T06:33:05Z</time>
      </trkpt>
      <trkpt lat="49.08173" lon="6.66411">
        <ele>366.4</ele>
        <time>2021-02-28T06:33:09Z</time>
      </trkpt>
      <trkpt lat="49.08168" lon="6.66399">
        <ele>366.88</ele>
        <time>2021-02-28T06:33:16Z</time>
      </trkpt>
      <trkpt lat="49.08159" lon="6.66388">
        <ele>366.4</ele>
        <time>2021-02-28T06:33:24Z</time>
      </trkpt>
      <trkpt lat="49.08156" lon="6.66386">
        <ele>366.4</ele>
        <time>2021-02-28T06:33:26Z</time>
      </trkpt>
      <trkpt lat="49.0814" lon="6.66363">
        <ele>365.44</ele>
        <time>2021-02-28T06:33:40Z</time>
      </trkpt>
      <trkpt lat="49.08129" lon="6.66345">
        <ele>364</ele>
        <time>2021-02-28T06:33:52Z</time>
      </trkpt>
      <trkpt lat="49.08113" lon="6.66321">
        <ele>363.04</ele>
        <time>2021-02-28T06:34:07Z</time>
      </trkpt>
      <trkpt lat="49.08095" lon="6.66302">
        <ele>362.07</ele>
        <time>2021-02-28T06:34:24Z</time>
      </trkpt>
      <trkpt lat="49.0808" lon="6.66279">
        <ele>360.15</ele>
        <time>2021-02-28T06:34:39Z</time>
      </trkpt>
      <trkpt lat="49.08058" lon="6.66248">
        <ele>358.23</ele>
        <time>2021-02-28T06:34:56Z</time>
      </trkpt>
      <trkpt lat="49.08057" lon="6.66247">
        <ele>358.23</ele>
        <time>2021-02-28T06:34:57Z</time>
      </trkpt>
      <trkpt lat="49.08047" lon="6.6623">
        <ele>358.23</ele>
        <time>2021-02-28T06:35:07Z</time>
      </trkpt>
      <trkpt lat="49.08032" lon="6.66201">
        <ele>355.34</ele>
        <time>2021-02-28T06:35:23Z</time>
      </trkpt>
      <trkpt lat="49.08018" lon="6.66182">
        <ele>354.86</ele>
        <time>2021-02-28T06:35:36Z</time>
      </trkpt>
      <trkpt lat="49.08006" lon="6.66162">
        <ele>352.94</ele>
        <time>2021-02-28T06:35:50Z</time>
      </trkpt>
      <trkpt lat="49.07984" lon="6.66138">
        <ele>351.5</ele>
        <time>2021-02-28T06:36:06Z</time>
      </trkpt>
      <trkpt lat="49.07973" lon="6.66122">
        <ele>350.06</ele>
        <time>2021-02-28T06:36:20Z</time>
      </trkpt>
      <trkpt lat="49.07975" lon="6.66114">
        <ele>349.1</ele>
        <time>2021-02-28T06:36:23Z</time>
      </trkpt>
      <trkpt lat="49.07976" lon="6.66111">
        <ele>347.65</ele>
        <time>2021-02-28T06:36:24Z</time>
      </trkpt>
      <trkpt lat="49.07977" lon="6.66109">
        <ele>348.13</ele>
        <time>2021-02-28T06:36:25Z</time>
      </trkpt>
      <trkpt lat="49.07976" lon="6.66088">
        <ele>347.65</ele>
        <time>2021-02-28T06:36:35Z</time>
      </trkpt>
      <trkpt lat="49.07956" lon="6.66058">
        <ele>347.65</ele>
        <time>2021-02-28T06:36:54Z</time>
      </trkpt>
      <trkpt lat="49.07937" lon="6.66029">
        <ele>345.73</ele>
        <time>2021-02-28T06:37:11Z</time>
      </trkpt>
      <trkpt lat="49.07915" lon="6.65996">
        <ele>345.73</ele>
        <time>2021-02-28T06:37:32Z</time>
      </trkpt>
      <trkpt lat="49.07895" lon="6.65969">
        <ele>345.73</ele>
        <time>2021-02-28T06:37:50Z</time>
      </trkpt>
      <trkpt lat="49.07872" lon="6.65936">
        <ele>344.77</ele>
        <time>2021-02-28T06:38:11Z</time>
      </trkpt>
      <trkpt lat="49.07852" lon="6.65906">
        <ele>343.33</ele>
        <time>2021-02-28T06:38:30Z</time>
      </trkpt>
      <trkpt lat="49.07835" lon="6.65879">
        <ele>343.81</ele>
        <time>2021-02-28T06:38:47Z</time>
      </trkpt>
      <trkpt lat="49.07814" lon="6.65846">
        <ele>343.81</ele>
        <time>2021-02-28T06:39:08Z</time>
      </trkpt>
      <trkpt lat="49.07788" lon="6.6581">
        <ele>343.33</ele>
        <time>2021-02-28T06:39:30Z</time>
      </trkpt>
      <trkpt lat="49.07766" lon="6.65778">
        <ele>341.41</ele>
        <time>2021-02-28T06:39:51Z</time>
      </trkpt>
      <trkpt lat="49.07744" lon="6.65747">
        <ele>341.89</ele>
        <time>2021-02-28T06:40:11Z</time>
      </trkpt>
      <trkpt lat="49.07722" lon="6.65717">
        <ele>340.92</ele>
        <time>2021-02-28T06:40:31Z</time>
      </trkpt>
      <trkpt lat="49.07703" lon="6.65695">
        <ele>340.44</ele>
        <time>2021-02-28T06:40:49Z</time>
      </trkpt>
      <trkpt lat="49.07678" lon="6.65673">
        <ele>340.44</ele>
        <time>2021-02-28T06:41:08Z</time>
      </trkpt>
      <trkpt lat="49.07652" lon="6.65655">
        <ele>339.48</ele>
        <time>2021-02-28T06:41:26Z</time>
      </trkpt>
      <trkpt lat="49.07623" lon="6.6564">
        <ele>339.96</ele>
        <time>2021-02-28T06:41:47Z</time>
      </trkpt>
      <trkpt lat="49.07592" lon="6.65629">
        <ele>339</ele>
        <time>2021-02-28T06:42:08Z</time>
      </trkpt>
      <trkpt lat="49.07567" lon="6.6562">
        <ele>338.04</ele>
        <time>2021-02-28T06:42:26Z</time>
      </trkpt>
      <trkpt lat="49.07539" lon="6.65614">
        <ele>338.04</ele>
        <time>2021-02-28T06:42:44Z</time>
      </trkpt>
      <trkpt lat="49.07509" lon="6.65613">
        <ele>337.08</ele>
        <time>2021-02-28T06:43:05Z</time>
      </trkpt>
      <trkpt lat="49.07506" lon="6.65613">
        <ele>336.6</ele>
        <time>2021-02-28T06:43:07Z</time>
      </trkpt>
      <trkpt lat="49.07504" lon="6.65614">
        <ele>336.6</ele>
        <time>2021-02-28T06:43:08Z</time>
      </trkpt>
      <trkpt lat="49.07503" lon="6.65614">
        <ele>337.08</ele>
        <time>2021-02-28T06:43:09Z</time>
      </trkpt>
      <trkpt lat="49.07479" lon="6.65617">
        <ele>336.12</ele>
        <time>2021-02-28T06:43:25Z</time>
      </trkpt>
      <trkpt lat="49.07452" lon="6.65619">
        <ele>336.12</ele>
        <time>2021-02-28T06:43:42Z</time>
      </trkpt>
      <trkpt lat="49.0742" lon="6.65624">
        <ele>335.16</ele>
        <time>2021-02-28T06:44:03Z</time>
      </trkpt>
      <trkpt lat="49.0739" lon="6.65627">
        <ele>334.68</ele>
        <time>2021-02-28T06:44:24Z</time>
      </trkpt>
      <trkpt lat="49.07368" lon="6.65632">
        <ele>333.71</ele>
        <time>2021-02-28T06:44:40Z</time>
      </trkpt>
      <trkpt lat="49.0734" lon="6.65635">
        <ele>333.71</ele>
        <time>2021-02-28T06:44:57Z</time>
      </trkpt>
      <trkpt lat="49.07319" lon="6.65639">
        <ele>333.23</ele>
        <time>2021-02-28T06:45:11Z</time>
      </trkpt>
      <trkpt lat="49.07299" lon="6.6564">
        <ele>333.71</ele>
        <time>2021-02-28T06:45:26Z</time>
      </trkpt>
      <trkpt lat="49.07273" lon="6.65644">
        <ele>332.75</ele>
        <time>2021-02-28T06:45:44Z</time>
      </trkpt>
      <trkpt lat="49.07247" lon="6.65647">
        <ele>332.27</ele>
        <time>2021-02-28T06:46:01Z</time>
      </trkpt>
      <trkpt lat="49.07225" lon="6.65649">
        <ele>331.79</ele>
        <time>2021-02-28T06:46:17Z</time>
      </trkpt>
      <trkpt lat="49.07202" lon="6.65646">
        <ele>331.31</ele>
        <time>2021-02-28T06:46:33Z</time>
      </trkpt>
      <trkpt lat="49.07173" lon="6.65639">
        <ele>331.31</ele>
        <time>2021-02-28T06:46:51Z</time>
      </trkpt>
      <trkpt lat="49.07152" lon="6.65629">
        <ele>330.83</ele>
        <time>2021-02-28T06:47:08Z</time>
      </trkpt>
      <trkpt lat="49.07126" lon="6.65613">
        <ele>330.35</ele>
        <time>2021-02-28T06:47:28Z</time>
      </trkpt>
      <trkpt lat="49.07105" lon="6.65596">
        <ele>329.87</ele>
        <time>2021-02-28T06:47:45Z</time>
      </trkpt>
      <trkpt lat="49.07079" lon="6.65573">
        <ele>329.39</ele>
        <time>2021-02-28T06:48:04Z</time>
      </trkpt>
      <trkpt lat="49.07055" lon="6.65546">
        <ele>327.47</ele>
        <time>2021-02-28T06:48:22Z</time>
      </trkpt>
      <trkpt lat="49.07035" lon="6.65518">
        <ele>327.95</ele>
        <time>2021-02-28T06:48:40Z</time>
      </trkpt>
      <trkpt lat="49.0702" lon="6.65491">
        <ele>327.47</ele>
        <time>2021-02-28T06:48:57Z</time>
      </trkpt>
      <trkpt lat="49.07018" lon="6.65487">
        <ele>328.43</ele>
        <time>2021-02-28T06:48:59Z</time>
      </trkpt>
      <trkpt lat="49.07018" lon="6.65486">
        <ele>326.5</ele>
        <time>2021-02-28T06:49:00Z</time>
      </trkpt>
      <trkpt lat="49.07016" lon="6.65483">
        <ele>327.47</ele>
        <time>2021-02-28T06:49:01Z</time>
      </trkpt>
      <trkpt lat="49.07003" lon="6.65453">
        <ele>326.99</ele>
        <time>2021-02-28T06:49:16Z</time>
      </trkpt>
      <trkpt lat="49.06992" lon="6.65419">
        <ele>326.02</ele>
        <time>2021-02-28T06:49:32Z</time>
      </trkpt>
      <trkpt lat="49.06978" lon="6.65381">
        <ele>324.58</ele>
        <time>2021-02-28T06:49:50Z</time>
      </trkpt>
      <trkpt lat="49.06967" lon="6.65348">
        <ele>325.54</ele>
        <time>2021-02-28T06:50:08Z</time>
      </trkpt>
      <trkpt lat="49.06956" lon="6.65307">
        <ele>324.1</ele>
        <time>2021-02-28T06:50:25Z</time>
      </trkpt>
      <trkpt lat="49.06945" lon="6.65268">
        <ele>324.1</ele>
        <time>2021-02-28T06:50:42Z</time>
      </trkpt>
      <trkpt lat="49.06935" lon="6.65233">
        <ele>323.62</ele>
        <time>2021-02-28T06:50:59Z</time>
      </trkpt>
      <trkpt lat="49.06924" lon="6.65195">
        <ele>322.18</ele>
        <time>2021-02-28T06:51:16Z</time>
      </trkpt>
      <trkpt lat="49.06914" lon="6.65161">
        <ele>321.7</ele>
        <time>2021-02-28T06:51:32Z</time>
      </trkpt>
      <trkpt lat="49.06907" lon="6.65129">
        <ele>321.22</ele>
        <time>2021-02-28T06:51:47Z</time>
      </trkpt>
      <trkpt lat="49.06896" lon="6.65096">
        <ele>319.78</ele>
        <time>2021-02-28T06:52:03Z</time>
      </trkpt>
      <trkpt lat="49.06885" lon="6.65057">
        <ele>319.78</ele>
        <time>2021-02-28T06:52:20Z</time>
      </trkpt>
      <trkpt lat="49.06873" lon="6.65021">
        <ele>318.81</ele>
        <time>2021-02-28T06:52:37Z</time>
      </trkpt>
      <trkpt lat="49.06864" lon="6.64984">
        <ele>318.33</ele>
        <time>2021-02-28T06:52:54Z</time>
      </trkpt>
      <trkpt lat="49.0685" lon="6.64943">
        <ele>318.33</ele>
        <time>2021-02-28T06:53:13Z</time>
      </trkpt>
      <trkpt lat="49.06837" lon="6.64913">
        <ele>317.37</ele>
        <time>2021-02-28T06:53:29Z</time>
      </trkpt>
      <trkpt lat="49.0682" lon="6.6488">
        <ele>316.89</ele>
        <time>2021-02-28T06:53:47Z</time>
      </trkpt>
      <trkpt lat="49.068" lon="6.64849">
        <ele>315.93</ele>
        <time>2021-02-28T06:54:04Z</time>
      </trkpt>
      <trkpt lat="49.06782" lon="6.6482">
        <ele>314.49</ele>
        <time>2021-02-28T06:54:21Z</time>
      </trkpt>
      <trkpt lat="49.06759" lon="6.64793">
        <ele>314.49</ele>
        <time>2021-02-28T06:54:39Z</time>
      </trkpt>
      <trkpt lat="49.06735" lon="6.6477">
        <ele>313.05</ele>
        <time>2021-02-28T06:54:57Z</time>
      </trkpt>
      <trkpt lat="49.06714" lon="6.64755">
        <ele>313.05</ele>
        <time>2021-02-28T06:55:12Z</time>
      </trkpt>
      <trkpt lat="49.06685" lon="6.6474">
        <ele>312.57</ele>
        <time>2021-02-28T06:55:31Z</time>
      </trkpt>
      <trkpt lat="49.06658" lon="6.64732">
        <ele>313.05</ele>
        <time>2021-02-28T06:55:49Z</time>
      </trkpt>
      <trkpt lat="49.06634" lon="6.64729">
        <ele>312.09</ele>
        <time>2021-02-28T06:56:06Z</time>
      </trkpt>
      <trkpt lat="49.0661" lon="6.64725">
        <ele>310.64</ele>
        <time>2021-02-28T06:56:22Z</time>
      </trkpt>
      <trkpt lat="49.06588" lon="6.64726">
        <ele>310.64</ele>
        <time>2021-02-28T06:56:36Z</time>
      </trkpt>
      <trkpt lat="49.06587" lon="6.64727">
        <ele>311.12</ele>
        <time>2021-02-28T06:56:37Z</time>
      </trkpt>
      <trkpt lat="49.06558" lon="6.64734">
        <ele>310.16</ele>
        <time>2021-02-28T06:56:55Z</time>
      </trkpt>
      <trkpt lat="49.06531" lon="6.64741">
        <ele>309.68</ele>
        <time>2021-02-28T06:57:12Z</time>
      </trkpt>
      <trkpt lat="49.06501" lon="6.64756">
        <ele>309.68</ele>
        <time>2021-02-28T06:57:31Z</time>
      </trkpt>
      <trkpt lat="49.0648" lon="6.64771">
        <ele>309.68</ele>
        <time>2021-02-28T06:57:46Z</time>
      </trkpt>
      <trkpt lat="49.06479" lon="6.64772">
        <ele>308.72</ele>
        <time>2021-02-28T06:57:47Z</time>
      </trkpt>
      <trkpt lat="49.06456" lon="6.64795">
        <ele>309.2</ele>
        <time>2021-02-28T06:58:04Z</time>
      </trkpt>
      <trkpt lat="49.06438" lon="6.64822">
        <ele>307.28</ele>
        <time>2021-02-28T06:58:18Z</time>
      </trkpt>
      <trkpt lat="49.0642" lon="6.64847">
        <ele>308.24</ele>
        <time>2021-02-28T06:58:33Z</time>
      </trkpt>
      <trkpt lat="49.06401" lon="6.64874">
        <ele>307.28</ele>
        <time>2021-02-28T06:58:48Z</time>
      </trkpt>
      <trkpt lat="49.06378" lon="6.64903">
        <ele>306.32</ele>
        <time>2021-02-28T06:59:06Z</time>
      </trkpt>
      <trkpt lat="49.06361" lon="6.64926">
        <ele>305.84</ele>
        <time>2021-02-28T06:59:20Z</time>
      </trkpt>
      <trkpt lat="49.06341" lon="6.64952">
        <ele>304.88</ele>
        <time>2021-02-28T06:59:36Z</time>
      </trkpt>
      <trkpt lat="49.06326" lon="6.64972">
        <ele>304.88</ele>
        <time>2021-02-28T06:59:49Z</time>
      </trkpt>
      <trkpt lat="49.06307" lon="6.64999">
        <ele>304.88</ele>
        <time>2021-02-28T07:00:06Z</time>
      </trkpt>
      <trkpt lat="49.06301" lon="6.65005">
        <ele>304.88</ele>
        <time>2021-02-28T07:00:11Z</time>
      </trkpt>
      <trkpt lat="49.063" lon="6.65007">
        <ele>304.88</ele>
        <time>2021-02-28T07:00:12Z</time>
      </trkpt>
      <trkpt lat="49.06299" lon="6.65009">
        <ele>304.88</ele>
        <time>2021-02-28T07:00:13Z</time>
      </trkpt>
      <trkpt lat="49.06298" lon="6.65011">
        <ele>304.88</ele>
        <time>2021-02-28T07:00:14Z</time>
      </trkpt>
      <trkpt lat="49.06297" lon="6.65012">
        <ele>304.39</ele>
        <time>2021-02-28T07:00:15Z</time>
      </trkpt>
      <trkpt lat="49.06295" lon="6.65014">
        <ele>303.43</ele>
        <time>2021-02-28T07:00:16Z</time>
      </trkpt>
      <trkpt lat="49.06272" lon="6.65044">
        <ele>304.39</ele>
        <time>2021-02-28T07:00:36Z</time>
      </trkpt>
      <trkpt lat="49.0625" lon="6.6507">
        <ele>303.91</ele>
        <time>2021-02-28T07:00:54Z</time>
      </trkpt>
      <trkpt lat="49.06226" lon="6.651">
        <ele>303.91</ele>
        <time>2021-02-28T07:01:14Z</time>
      </trkpt>
      <trkpt lat="49.06201" lon="6.65129">
        <ele>303.43</ele>
        <time>2021-02-28T07:01:33Z</time>
      </trkpt>
      <trkpt lat="49.0618" lon="6.65148">
        <ele>302.95</ele>
        <time>2021-02-28T07:01:49Z</time>
      </trkpt>
      <trkpt lat="49.06156" lon="6.65166">
        <ele>301.51</ele>
        <time>2021-02-28T07:02:06Z</time>
      </trkpt>
      <trkpt lat="49.06128" lon="6.65181">
        <ele>301.03</ele>
        <time>2021-02-28T07:02:25Z</time>
      </trkpt>
      <trkpt lat="49.06094" lon="6.65191">
        <ele>300.55</ele>
        <time>2021-02-28T07:02:47Z</time>
      </trkpt>
      <trkpt lat="49.06061" lon="6.65198">
        <ele>300.55</ele>
        <time>2021-02-28T07:03:09Z</time>
      </trkpt>
      <trkpt lat="49.06033" lon="6.65196">
        <ele>300.55</ele>
        <time>2021-02-28T07:03:29Z</time>
      </trkpt>
      <trkpt lat="49.06007" lon="6.65191">
        <ele>299.59</ele>
        <time>2021-02-28T07:03:46Z</time>
      </trkpt>
      <trkpt lat="49.05977" lon="6.6518">
        <ele>298.63</ele>
        <time>2021-02-28T07:04:06Z</time>
      </trkpt>
      <trkpt lat="49.05942" lon="6.65162">
        <ele>297.18</ele>
        <time>2021-02-28T07:04:30Z</time>
      </trkpt>
      <trkpt lat="49.05911" lon="6.65148">
        <ele>296.22</ele>
        <time>2021-02-28T07:04:51Z</time>
      </trkpt>
      <trkpt lat="49.0588" lon="6.65131">
        <ele>294.78</ele>
        <time>2021-02-28T07:05:13Z</time>
      </trkpt>
      <trkpt lat="49.0585" lon="6.65114">
        <ele>294.78</ele>
        <time>2021-02-28T07:05:33Z</time>
      </trkpt>
      <trkpt lat="49.05819" lon="6.651">
        <ele>294.3</ele>
        <time>2021-02-28T07:05:53Z</time>
      </trkpt>
      <trkpt lat="49.0579" lon="6.65085">
        <ele>292.86</ele>
        <time>2021-02-28T07:06:13Z</time>
      </trkpt>
      <trkpt lat="49.05759" lon="6.65069">
        <ele>293.34</ele>
        <time>2021-02-28T07:06:34Z</time>
      </trkpt>
      <trkpt lat="49.05729" lon="6.65054">
        <ele>293.34</ele>
        <time>2021-02-28T07:06:55Z</time>
      </trkpt>
      <trkpt lat="49.05698" lon="6.65038">
        <ele>292.86</ele>
        <time>2021-02-28T07:07:16Z</time>
      </trkpt>
      <trkpt lat="49.05666" lon="6.65024">
        <ele>293.34</ele>
        <time>2021-02-28T07:07:38Z</time>
      </trkpt>
      <trkpt lat="49.0564" lon="6.65017">
        <ele>293.82</ele>
        <time>2021-02-28T07:07:57Z</time>
      </trkpt>
      <trkpt lat="49.05615" lon="6.65046">
        <ele>291.9</ele>
        <time>2021-02-28T07:08:17Z</time>
      </trkpt>
      <trkpt lat="49.05601" lon="6.65062">
        <ele>288.53</ele>
        <time>2021-02-28T07:08:29Z</time>
      </trkpt>
      <trkpt lat="49.05593" lon="6.65069">
        <ele>289.01</ele>
        <time>2021-02-28T07:08:44Z</time>
      </trkpt>
      <trkpt lat="49.05576" lon="6.65089">
        <ele>285.65</ele>
        <time>2021-02-28T07:08:58Z</time>
      </trkpt>
      <trkpt lat="49.05553" lon="6.65114">
        <ele>285.65</ele>
        <time>2021-02-28T07:09:16Z</time>
      </trkpt>
      <trkpt lat="49.05527" lon="6.65146">
        <ele>283.73</ele>
        <time>2021-02-28T07:09:38Z</time>
      </trkpt>
      <trkpt lat="49.05495" lon="6.65183">
        <ele>281.32</ele>
        <time>2021-02-28T07:10:04Z</time>
      </trkpt>
      <trkpt lat="49.05466" lon="6.65216">
        <ele>279.88</ele>
        <time>2021-02-28T07:10:27Z</time>
      </trkpt>
      <trkpt lat="49.05436" lon="6.65249">
        <ele>279.4</ele>
        <time>2021-02-28T07:10:51Z</time>
      </trkpt>
      <trkpt lat="49.05413" lon="6.65275">
        <ele>277.96</ele>
        <time>2021-02-28T07:11:10Z</time>
      </trkpt>
      <trkpt lat="49.05387" lon="6.65305">
        <ele>276.52</ele>
        <time>2021-02-28T07:11:31Z</time>
      </trkpt>
      <trkpt lat="49.05366" lon="6.65329">
        <ele>275.07</ele>
        <time>2021-02-28T07:11:49Z</time>
      </trkpt>
      <trkpt lat="49.05342" lon="6.65356">
        <ele>274.59</ele>
        <time>2021-02-28T07:12:10Z</time>
      </trkpt>
      <trkpt lat="49.05322" lon="6.65379">
        <ele>271.23</ele>
        <time>2021-02-28T07:12:27Z</time>
      </trkpt>
      <trkpt lat="49.05311" lon="6.6539">
        <ele>273.15</ele>
        <time>2021-02-28T07:12:37Z</time>
      </trkpt>
      <trkpt lat="49.05304" lon="6.65395">
        <ele>272.19</ele>
        <time>2021-02-28T07:12:42Z</time>
      </trkpt>
      <trkpt lat="49.05275" lon="6.65408">
        <ele>270.27</ele>
        <time>2021-02-28T07:13:03Z</time>
      </trkpt>
      <trkpt lat="49.05256" lon="6.65415">
        <ele>266.9</ele>
        <time>2021-02-28T07:13:17Z</time>
      </trkpt>
      <trkpt lat="49.0522" lon="6.65431">
        <ele>265.46</ele>
        <time>2021-02-28T07:13:42Z</time>
      </trkpt>
      <trkpt lat="49.05181" lon="6.65446">
        <ele>263.06</ele>
        <time>2021-02-28T07:14:08Z</time>
      </trkpt>
      <trkpt lat="49.05148" lon="6.65459">
        <ele>262.1</ele>
        <time>2021-02-28T07:14:31Z</time>
      </trkpt>
      <trkpt lat="49.05111" lon="6.65475">
        <ele>259.21</ele>
        <time>2021-02-28T07:14:57Z</time>
      </trkpt>
      <trkpt lat="49.05074" lon="6.65489">
        <ele>259.21</ele>
        <time>2021-02-28T07:15:23Z</time>
      </trkpt>
      <trkpt lat="49.0506" lon="6.65496">
        <ele>258.73</ele>
        <time>2021-02-28T07:15:33Z</time>
      </trkpt>
      <trkpt lat="49.05025" lon="6.65512">
        <ele>258.73</ele>
        <time>2021-02-28T07:15:57Z</time>
      </trkpt>
      <trkpt lat="49.04997" lon="6.65525">
        <ele>258.73</ele>
        <time>2021-02-28T07:16:17Z</time>
      </trkpt>
      <trkpt lat="49.04966" lon="6.65528">
        <ele>255.37</ele>
        <time>2021-02-28T07:16:38Z</time>
      </trkpt>
      <trkpt lat="49.04934" lon="6.65533">
        <ele>253.44</ele>
        <time>2021-02-28T07:17:00Z</time>
      </trkpt>
      <trkpt lat="49.0491" lon="6.65553">
        <ele>251.52</ele>
        <time>2021-02-28T07:17:18Z</time>
      </trkpt>
      <trkpt lat="49.04883" lon="6.65574">
        <ele>250.08</ele>
        <time>2021-02-28T07:17:39Z</time>
      </trkpt>
      <trkpt lat="49.04863" lon="6.65553">
        <ele>246.72</ele>
        <time>2021-02-28T07:17:56Z</time>
      </trkpt>
      <trkpt lat="49.0484" lon="6.6552">
        <ele>246.23</ele>
        <time>2021-02-28T07:18:17Z</time>
      </trkpt>
      <trkpt lat="49.04821" lon="6.65493">
        <ele>246.72</ele>
        <time>2021-02-28T07:18:35Z</time>
      </trkpt>
      <trkpt lat="49.04803" lon="6.65462">
        <ele>247.68</ele>
        <time>2021-02-28T07:18:54Z</time>
      </trkpt>
      <trkpt lat="49.04777" lon="6.65429">
        <ele>247.68</ele>
        <time>2021-02-28T07:19:15Z</time>
      </trkpt>
      <trkpt lat="49.04754" lon="6.65403">
        <ele>249.12</ele>
        <time>2021-02-28T07:19:34Z</time>
      </trkpt>
      <trkpt lat="49.04725" lon="6.65373">
        <ele>249.12</ele>
        <time>2021-02-28T07:19:57Z</time>
      </trkpt>
      <trkpt lat="49.047" lon="6.65337">
        <ele>249.12</ele>
        <time>2021-02-28T07:20:20Z</time>
      </trkpt>
      <trkpt lat="49.0468" lon="6.65302">
        <ele>249.12</ele>
        <time>2021-02-28T07:20:40Z</time>
      </trkpt>
      <trkpt lat="49.04664" lon="6.65267">
        <ele>248.16</ele>
        <time>2021-02-28T07:20:59Z</time>
      </trkpt>
      <trkpt lat="49.04649" lon="6.65228">
        <ele>247.68</ele>
        <time>2021-02-28T07:21:19Z</time>
      </trkpt>
      <trkpt lat="49.04632" lon="6.65189">
        <ele>246.23</ele>
        <time>2021-02-28T07:21:38Z</time>
      </trkpt>
      <trkpt lat="49.04614" lon="6.65154">
        <ele>245.75</ele>
        <time>2021-02-28T07:21:57Z</time>
      </trkpt>
      <trkpt lat="49.04598" lon="6.6512">
        <ele>245.75</ele>
        <time>2021-02-28T07:22:15Z</time>
      </trkpt>
      <trkpt lat="49.04588" lon="6.65074">
        <ele>245.75</ele>
        <time>2021-02-28T07:22:35Z</time>
      </trkpt>
      <trkpt lat="49.04581" lon="6.6503">
        <ele>245.27</ele>
        <time>2021-02-28T07:22:54Z</time>
      </trkpt>
      <trkpt lat="49.04573" lon="6.64985">
        <ele>244.79</ele>
        <time>2021-02-28T07:23:14Z</time>
      </trkpt>
      <trkpt lat="49.04567" lon="6.64949">
        <ele>245.27</ele>
        <time>2021-02-28T07:23:34Z</time>
      </trkpt>
      <trkpt lat="49.04567" lon="6.64939">
        <ele>245.27</ele>
        <time>2021-02-28T07:23:55Z</time>
      </trkpt>
      <trkpt lat="49.04563" lon="6.64891">
        <ele>244.79</ele>
        <time>2021-02-28T07:24:18Z</time>
      </trkpt>
      <trkpt lat="49.04562" lon="6.64877">
        <ele>245.27</ele>
        <time>2021-02-28T07:24:25Z</time>
      </trkpt>
      <trkpt lat="49.04562" lon="6.64875">
        <ele>244.79</ele>
        <time>2021-02-28T07:24:26Z</time>
      </trkpt>
      <trkpt lat="49.04562" lon="6.64873">
        <ele>244.79</ele>
        <time>2021-02-28T07:24:27Z</time>
      </trkpt>
      <trkpt lat="49.04557" lon="6.64833">
        <ele>245.27</ele>
        <time>2021-02-28T07:24:44Z</time>
      </trkpt>
      <trkpt lat="49.04554" lon="6.64796">
        <ele>245.75</ele>
        <time>2021-02-28T07:25:01Z</time>
      </trkpt>
      <trkpt lat="49.04554" lon="6.64754">
        <ele>245.27</ele>
        <time>2021-02-28T07:25:19Z</time>
      </trkpt>
      <trkpt lat="49.04553" lon="6.64715">
        <ele>246.23</ele>
        <time>2021-02-28T07:25:35Z</time>
      </trkpt>
      <trkpt lat="49.04551" lon="6.64678">
        <ele>245.75</ele>
        <time>2021-02-28T07:25:52Z</time>
      </trkpt>
      <trkpt lat="49.0455" lon="6.64638">
        <ele>246.23</ele>
        <time>2021-02-28T07:26:09Z</time>
      </trkpt>
      <trkpt lat="49.04548" lon="6.64599">
        <ele>246.23</ele>
        <time>2021-02-28T07:26:26Z</time>
      </trkpt>
      <trkpt lat="49.04546" lon="6.64564">
        <ele>247.2</ele>
        <time>2021-02-28T07:26:41Z</time>
      </trkpt>
      <trkpt lat="49.04546" lon="6.6452">
        <ele>246.23</ele>
        <time>2021-02-28T07:27:00Z</time>
      </trkpt>
      <trkpt lat="49.04544" lon="6.64484">
        <ele>247.68</ele>
        <time>2021-02-28T07:27:16Z</time>
      </trkpt>
      <trkpt lat="49.04534" lon="6.64441">
        <ele>247.68</ele>
        <time>2021-02-28T07:27:37Z</time>
      </trkpt>
      <trkpt lat="49.04509" lon="6.64436">
        <ele>248.64</ele>
        <time>2021-02-28T07:27:55Z</time>
      </trkpt>
      <trkpt lat="49.04481" lon="6.64441">
        <ele>249.6</ele>
        <time>2021-02-28T07:28:15Z</time>
      </trkpt>
      <trkpt lat="49.04452" lon="6.64442">
        <ele>250.56</ele>
        <time>2021-02-28T07:28:34Z</time>
      </trkpt>
      <trkpt lat="49.04418" lon="6.6444">
        <ele>249.6</ele>
        <time>2021-02-28T07:28:57Z</time>
      </trkpt>
      <trkpt lat="49.04396" lon="6.64427">
        <ele>249.6</ele>
        <time>2021-02-28T07:29:13Z</time>
      </trkpt>
      <trkpt lat="49.0437" lon="6.64421">
        <ele>249.12</ele>
        <time>2021-02-28T07:29:31Z</time>
      </trkpt>
      <trkpt lat="49.0434" lon="6.64413">
        <ele>248.16</ele>
        <time>2021-02-28T07:29:50Z</time>
      </trkpt>
      <trkpt lat="49.04309" lon="6.64408">
        <ele>247.68</ele>
        <time>2021-02-28T07:30:10Z</time>
      </trkpt>
      <trkpt lat="49.04278" lon="6.64404">
        <ele>247.68</ele>
        <time>2021-02-28T07:30:30Z</time>
      </trkpt>
      <trkpt lat="49.04256" lon="6.64405">
        <ele>247.2</ele>
        <time>2021-02-28T07:30:44Z</time>
      </trkpt>
      <trkpt lat="49.04247" lon="6.64406">
        <ele>247.2</ele>
        <time>2021-02-28T07:30:50Z</time>
      </trkpt>
      <trkpt lat="49.04241" lon="6.64405">
        <ele>246.72</ele>
        <time>2021-02-28T07:31:03Z</time>
      </trkpt>
      <trkpt lat="49.04217" lon="6.64402">
        <ele>246.72</ele>
        <time>2021-02-28T07:31:21Z</time>
      </trkpt>
      <trkpt lat="49.04198" lon="6.64378">
        <ele>245.75</ele>
        <time>2021-02-28T07:31:38Z</time>
      </trkpt>
      <trkpt lat="49.0418" lon="6.64335">
        <ele>243.83</ele>
        <time>2021-02-28T07:32:01Z</time>
      </trkpt>
      <trkpt lat="49.04163" lon="6.64296">
        <ele>243.35</ele>
        <time>2021-02-28T07:32:21Z</time>
      </trkpt>
      <trkpt lat="49.04145" lon="6.64257">
        <ele>243.83</ele>
        <time>2021-02-28T07:32:42Z</time>
      </trkpt>
      <trkpt lat="49.04119" lon="6.64249">
        <ele>243.35</ele>
        <time>2021-02-28T07:33:00Z</time>
      </trkpt>
      <trkpt lat="49.04111" lon="6.64253">
        <ele>244.31</ele>
        <time>2021-02-28T07:33:13Z</time>
      </trkpt>
      <trkpt lat="49.04083" lon="6.64261">
        <ele>243.35</ele>
        <time>2021-02-28T07:33:32Z</time>
      </trkpt>
      <trkpt lat="49.04047" lon="6.64273">
        <ele>243.35</ele>
        <time>2021-02-28T07:33:55Z</time>
      </trkpt>
      <trkpt lat="49.04013" lon="6.64286">
        <ele>242.87</ele>
        <time>2021-02-28T07:34:16Z</time>
      </trkpt>
      <trkpt lat="49.0398" lon="6.64299">
        <ele>245.27</ele>
        <time>2021-02-28T07:34:38Z</time>
      </trkpt>
      <trkpt lat="49.03956" lon="6.64303">
        <ele>243.83</ele>
        <time>2021-02-28T07:34:57Z</time>
      </trkpt>
      <trkpt lat="49.03926" lon="6.64299">
        <ele>243.83</ele>
        <time>2021-02-28T07:35:16Z</time>
      </trkpt>
      <trkpt lat="49.03892" lon="6.64286">
        <ele>243.35</ele>
        <time>2021-02-28T07:35:38Z</time>
      </trkpt>
      <trkpt lat="49.03866" lon="6.6426">
        <ele>243.83</ele>
        <time>2021-02-28T07:35:58Z</time>
      </trkpt>
      <trkpt lat="49.03835" lon="6.64233">
        <ele>244.31</ele>
        <time>2021-02-28T07:36:22Z</time>
      </trkpt>
      <trkpt lat="49.03805" lon="6.64224">
        <ele>243.83</ele>
        <time>2021-02-28T07:36:42Z</time>
      </trkpt>
      <trkpt lat="49.03772" lon="6.64214">
        <ele>244.79</ele>
        <time>2021-02-28T07:37:05Z</time>
      </trkpt>
      <trkpt lat="49.03735" lon="6.64204">
        <ele>244.31</ele>
        <time>2021-02-28T07:37:29Z</time>
      </trkpt>
      <trkpt lat="49.03697" lon="6.64194">
        <ele>243.83</ele>
        <time>2021-02-28T07:37:54Z</time>
      </trkpt>
      <trkpt lat="49.03688" lon="6.64193">
        <ele>243.83</ele>
        <time>2021-02-28T07:38:10Z</time>
      </trkpt>
      <trkpt lat="49.03677" lon="6.6419">
        <ele>244.31</ele>
        <time>2021-02-28T07:38:23Z</time>
      </trkpt>
      <trkpt lat="49.03639" lon="6.64192">
        <ele>244.31</ele>
        <time>2021-02-28T07:38:50Z</time>
      </trkpt>
      <trkpt lat="49.03626" lon="6.64196">
        <ele>243.35</ele>
        <time>2021-02-28T07:39:03Z</time>
      </trkpt>
      <trkpt lat="49.03625" lon="6.64197">
        <ele>243.35</ele>
        <time>2021-02-28T07:39:04Z</time>
      </trkpt>
      <trkpt lat="49.03606" lon="6.64232">
        <ele>243.83</ele>
        <time>2021-02-28T07:39:24Z</time>
      </trkpt>
      <trkpt lat="49.03602" lon="6.64248">
        <ele>244.31</ele>
        <time>2021-02-28T07:39:36Z</time>
      </trkpt>
      <trkpt lat="49.03595" lon="6.64294">
        <ele>243.35</ele>
        <time>2021-02-28T07:39:56Z</time>
      </trkpt>
      <trkpt lat="49.03584" lon="6.64337">
        <ele>243.35</ele>
        <time>2021-02-28T07:40:16Z</time>
      </trkpt>
      <trkpt lat="49.03573" lon="6.64374">
        <ele>242.39</ele>
        <time>2021-02-28T07:40:35Z</time>
      </trkpt>
      <trkpt lat="49.03571" lon="6.6438">
        <ele>244.31</ele>
        <time>2021-02-28T07:40:38Z</time>
      </trkpt>
      <trkpt lat="49.0356" lon="6.64421">
        <ele>242.87</ele>
        <time>2021-02-28T07:40:56Z</time>
      </trkpt>
      <trkpt lat="49.03549" lon="6.64459">
        <ele>244.79</ele>
        <time>2021-02-28T07:41:14Z</time>
      </trkpt>
      <trkpt lat="49.0354" lon="6.64499">
        <ele>243.83</ele>
        <time>2021-02-28T07:41:32Z</time>
      </trkpt>
      <trkpt lat="49.03529" lon="6.64548">
        <ele>246.23</ele>
        <time>2021-02-28T07:41:54Z</time>
      </trkpt>
      <trkpt lat="49.03518" lon="6.64589">
        <ele>247.68</ele>
        <time>2021-02-28T07:42:13Z</time>
      </trkpt>
      <trkpt lat="49.03507" lon="6.64632">
        <ele>248.64</ele>
        <time>2021-02-28T07:42:33Z</time>
      </trkpt>
      <trkpt lat="49.03495" lon="6.64677">
        <ele>249.12</ele>
        <time>2021-02-28T07:42:54Z</time>
      </trkpt>
      <trkpt lat="49.03483" lon="6.64722">
        <ele>250.08</ele>
        <time>2021-02-28T07:43:15Z</time>
      </trkpt>
      <trkpt lat="49.0348" lon="6.64735">
        <ele>251.04</ele>
        <time>2021-02-28T07:43:21Z</time>
      </trkpt>
      <trkpt lat="49.03469" lon="6.64781">
        <ele>253.44</ele>
        <time>2021-02-28T07:43:43Z</time>
      </trkpt>
      <trkpt lat="49.03455" lon="6.64804">
        <ele>256.81</ele>
        <time>2021-02-28T07:43:57Z</time>
      </trkpt>
      <trkpt lat="49.03429" lon="6.64815">
        <ele>259.21</ele>
        <time>2021-02-28T07:44:16Z</time>
      </trkpt>
      <trkpt lat="49.03408" lon="6.64824">
        <ele>262.1</ele>
        <time>2021-02-28T07:44:30Z</time>
      </trkpt>
      <trkpt lat="49.03379" lon="6.64833">
        <ele>264.5</ele>
        <time>2021-02-28T07:44:50Z</time>
      </trkpt>
      <trkpt lat="49.03353" lon="6.64838">
        <ele>267.38</ele>
        <time>2021-02-28T07:45:09Z</time>
      </trkpt>
      <trkpt lat="49.03325" lon="6.64844">
        <ele>268.35</ele>
        <time>2021-02-28T07:45:28Z</time>
      </trkpt>
      <trkpt lat="49.03293" lon="6.64848">
        <ele>269.79</ele>
        <time>2021-02-28T07:45:50Z</time>
      </trkpt>
      <trkpt lat="49.03263" lon="6.64854">
        <ele>269.79</ele>
        <time>2021-02-28T07:46:10Z</time>
      </trkpt>
      <trkpt lat="49.03237" lon="6.64866">
        <ele>269.79</ele>
        <time>2021-02-28T07:46:28Z</time>
      </trkpt>
      <trkpt lat="49.03206" lon="6.64878">
        <ele>269.79</ele>
        <time>2021-02-28T07:46:50Z</time>
      </trkpt>
      <trkpt lat="49.03181" lon="6.64887">
        <ele>269.79</ele>
        <time>2021-02-28T07:47:08Z</time>
      </trkpt>
      <trkpt lat="49.03159" lon="6.64895">
        <ele>270.75</ele>
        <time>2021-02-28T07:47:23Z</time>
      </trkpt>
      <trkpt lat="49.03133" lon="6.64907">
        <ele>272.19</ele>
        <time>2021-02-28T07:47:42Z</time>
      </trkpt>
      <trkpt lat="49.03115" lon="6.64917">
        <ele>271.71</ele>
        <time>2021-02-28T07:47:56Z</time>
      </trkpt>
      <trkpt lat="49.03093" lon="6.6493">
        <ele>274.11</ele>
        <time>2021-02-28T07:48:13Z</time>
      </trkpt>
      <trkpt lat="49.03087" lon="6.64932">
        <ele>273.15</ele>
        <time>2021-02-28T07:48:19Z</time>
      </trkpt>
      <trkpt lat="49.03085" lon="6.64931">
        <ele>274.11</ele>
        <time>2021-02-28T07:48:21Z</time>
      </trkpt>
      <trkpt lat="49.03083" lon="6.64932">
        <ele>274.59</ele>
        <time>2021-02-28T07:48:23Z</time>
      </trkpt>
      <trkpt lat="49.03065" lon="6.64952">
        <ele>275.07</ele>
        <time>2021-02-28T07:48:42Z</time>
      </trkpt>
      <trkpt lat="49.03062" lon="6.64959">
        <ele>274.59</ele>
        <time>2021-02-28T07:48:47Z</time>
      </trkpt>
      <trkpt lat="49.03056" lon="6.64974">
        <ele>275.56</ele>
        <time>2021-02-28T07:48:56Z</time>
      </trkpt>
      <trkpt lat="49.03049" lon="6.64997">
        <ele>277.48</ele>
        <time>2021-02-28T07:49:10Z</time>
      </trkpt>
      <trkpt lat="49.03048" lon="6.65006">
        <ele>278.44</ele>
        <time>2021-02-28T07:49:14Z</time>
      </trkpt>
      <trkpt lat="49.03041" lon="6.65028">
        <ele>280.84</ele>
        <time>2021-02-28T07:49:29Z</time>
      </trkpt>
      <trkpt lat="49.03039" lon="6.65035">
        <ele>281.8</ele>
        <time>2021-02-28T07:49:34Z</time>
      </trkpt>
      <trkpt lat="49.03037" lon="6.65041">
        <ele>281.32</ele>
        <time>2021-02-28T07:49:38Z</time>
      </trkpt>
      <trkpt lat="49.03032" lon="6.65076">
        <ele>285.65</ele>
        <time>2021-02-28T07:49:56Z</time>
      </trkpt>
      <trkpt lat="49.03028" lon="6.65086">
        <ele>286.61</ele>
        <time>2021-02-28T07:50:04Z</time>
      </trkpt>
      <trkpt lat="49.03022" lon="6.65093">
        <ele>288.53</ele>
        <time>2021-02-28T07:50:10Z</time>
      </trkpt>
      <trkpt lat="49.03012" lon="6.65107">
        <ele>291.42</ele>
        <time>2021-02-28T07:50:22Z</time>
      </trkpt>
      <trkpt lat="49.02995" lon="6.65123">
        <ele>292.86</ele>
        <time>2021-02-28T07:50:40Z</time>
      </trkpt>
      <trkpt lat="49.02982" lon="6.65142">
        <ele>295.74</ele>
        <time>2021-02-28T07:50:56Z</time>
      </trkpt>
      <trkpt lat="49.02968" lon="6.6516">
        <ele>296.7</ele>
        <time>2021-02-28T07:51:12Z</time>
      </trkpt>
      <trkpt lat="49.02966" lon="6.6516">
        <ele>297.18</ele>
        <time>2021-02-28T07:51:14Z</time>
      </trkpt>
      <trkpt lat="49.02961" lon="6.65164">
        <ele>297.67</ele>
        <time>2021-02-28T07:51:18Z</time>
      </trkpt>
      <trkpt lat="49.02944" lon="6.65175">
        <ele>297.67</ele>
        <time>2021-02-28T07:51:33Z</time>
      </trkpt>
      <trkpt lat="49.02935" lon="6.6518">
        <ele>297.18</ele>
        <time>2021-02-28T07:51:50Z</time>
      </trkpt>
      <trkpt lat="49.02932" lon="6.65187">
        <ele>297.67</ele>
        <time>2021-02-28T07:52:14Z</time>
      </trkpt>
      <trkpt lat="49.02933" lon="6.65186">
        <ele>297.18</ele>
        <time>2021-02-28T07:52:35Z</time>
      </trkpt>
      <trkpt lat="49.02933" lon="6.65186">
        <ele>298.15</ele>
        <time>2021-02-28T07:52:59Z</time>
      </trkpt>
      <trkpt lat="49.02933" lon="6.65185">
        <ele>298.15</ele>
        <time>2021-02-28T07:53:29Z</time>
      </trkpt>
      <trkpt lat="49.02932" lon="6.65186">
        <ele>298.15</ele>
        <time>2021-02-28T07:53:57Z</time>
      </trkpt>
      <trkpt lat="49.02932" lon="6.65186">
        <ele>297.67</ele>
        <time>2021-02-28T07:54:27Z</time>
      </trkpt>
      <trkpt lat="49.02933" lon="6.65188">
        <ele>297.67</ele>
        <time>2021-02-28T07:54:52Z</time>
      </trkpt>
      <trkpt lat="49.02932" lon="6.65187">
        <ele>297.67</ele>
        <time>2021-02-28T07:55:29Z</time>
      </trkpt>
      <trkpt lat="49.02933" lon="6.65187">
        <ele>296.7</ele>
        <time>2021-02-28T07:55:48Z</time>
      </trkpt>
      <trkpt lat="49.02933" lon="6.65187">
        <ele>298.15</ele>
        <time>2021-02-28T07:55:50Z</time>
      </trkpt>
      <trkpt lat="49.02934" lon="6.65187">
        <ele>297.18</ele>
        <time>2021-02-28T07:56:19Z</time>
      </trkpt>
      <trkpt lat="49.0293" lon="6.65187">
        <ele>297.67</ele>
        <time>2021-02-28T07:56:41Z</time>
      </trkpt>
      <trkpt lat="49.02918" lon="6.65195">
        <ele>297.18</ele>
        <time>2021-02-28T07:56:51Z</time>
      </trkpt>
      <trkpt lat="49.02884" lon="6.65222">
        <ele>295.74</ele>
        <time>2021-02-28T07:57:17Z</time>
      </trkpt>
      <trkpt lat="49.02856" lon="6.65243">
        <ele>292.38</ele>
        <time>2021-02-28T07:57:38Z</time>
      </trkpt>
      <trkpt lat="49.02828" lon="6.65266">
        <ele>290.94</ele>
        <time>2021-02-28T07:57:58Z</time>
      </trkpt>
      <trkpt lat="49.02795" lon="6.65287">
        <ele>289.01</ele>
        <time>2021-02-28T07:58:21Z</time>
      </trkpt>
      <trkpt lat="49.02762" lon="6.65302">
        <ele>288.05</ele>
        <time>2021-02-28T07:58:44Z</time>
      </trkpt>
      <trkpt lat="49.02728" lon="6.65314">
        <ele>287.09</ele>
        <time>2021-02-28T07:59:07Z</time>
      </trkpt>
      <trkpt lat="49.02703" lon="6.65325">
        <ele>285.65</ele>
        <time>2021-02-28T07:59:25Z</time>
      </trkpt>
      <trkpt lat="49.02689" lon="6.65334">
        <ele>283.25</ele>
        <time>2021-02-28T07:59:35Z</time>
      </trkpt>
      <trkpt lat="49.02657" lon="6.65351">
        <ele>281.32</ele>
        <time>2021-02-28T07:59:57Z</time>
      </trkpt>
      <trkpt lat="49.02625" lon="6.65351">
        <ele>278.44</ele>
        <time>2021-02-28T08:00:18Z</time>
      </trkpt>
      <trkpt lat="49.02602" lon="6.6533">
        <ele>274.59</ele>
        <time>2021-02-28T08:00:36Z</time>
      </trkpt>
      <trkpt lat="49.02574" lon="6.65328">
        <ele>273.15</ele>
        <time>2021-02-28T08:00:56Z</time>
      </trkpt>
      <trkpt lat="49.0256" lon="6.65334">
        <ele>269.79</ele>
        <time>2021-02-28T08:01:06Z</time>
      </trkpt>
      <trkpt lat="49.02528" lon="6.65348">
        <ele>268.35</ele>
        <time>2021-02-28T08:01:30Z</time>
      </trkpt>
      <trkpt lat="49.02497" lon="6.65358">
        <ele>265.94</ele>
        <time>2021-02-28T08:01:51Z</time>
      </trkpt>
      <trkpt lat="49.02465" lon="6.65363">
        <ele>263.06</ele>
        <time>2021-02-28T08:02:12Z</time>
      </trkpt>
      <trkpt lat="49.02436" lon="6.65372">
        <ele>262.58</ele>
        <time>2021-02-28T08:02:32Z</time>
      </trkpt>
      <trkpt lat="49.02407" lon="6.65389">
        <ele>260.65</ele>
        <time>2021-02-28T08:02:53Z</time>
      </trkpt>
      <trkpt lat="49.02387" lon="6.65411">
        <ele>259.69</ele>
        <time>2021-02-28T08:03:11Z</time>
      </trkpt>
      <trkpt lat="49.02391" lon="6.65452">
        <ele>259.21</ele>
        <time>2021-02-28T08:03:29Z</time>
      </trkpt>
      <trkpt lat="49.02403" lon="6.65499">
        <ele>257.77</ele>
        <time>2021-02-28T08:03:50Z</time>
      </trkpt>
      <trkpt lat="49.02412" lon="6.65539">
        <ele>257.29</ele>
        <time>2021-02-28T08:04:08Z</time>
      </trkpt>
      <trkpt lat="49.02423" lon="6.65579">
        <ele>258.25</ele>
        <time>2021-02-28T08:04:27Z</time>
      </trkpt>
      <trkpt lat="49.02434" lon="6.6562">
        <ele>258.73</ele>
        <time>2021-02-28T08:04:45Z</time>
      </trkpt>
      <trkpt lat="49.02445" lon="6.65661">
        <ele>258.25</ele>
        <time>2021-02-28T08:05:04Z</time>
      </trkpt>
      <trkpt lat="49.02457" lon="6.65699">
        <ele>258.73</ele>
        <time>2021-02-28T08:05:23Z</time>
      </trkpt>
      <trkpt lat="49.0247" lon="6.65742">
        <ele>260.65</ele>
        <time>2021-02-28T08:05:42Z</time>
      </trkpt>
      <trkpt lat="49.02479" lon="6.65777">
        <ele>260.17</ele>
        <time>2021-02-28T08:05:58Z</time>
      </trkpt>
      <trkpt lat="49.0249" lon="6.65814">
        <ele>259.69</ele>
        <time>2021-02-28T08:06:16Z</time>
      </trkpt>
      <trkpt lat="49.02501" lon="6.65854">
        <ele>257.77</ele>
        <time>2021-02-28T08:06:34Z</time>
      </trkpt>
      <trkpt lat="49.02514" lon="6.65901">
        <ele>259.21</ele>
        <time>2021-02-28T08:06:55Z</time>
      </trkpt>
      <trkpt lat="49.02528" lon="6.65949">
        <ele>258.73</ele>
        <time>2021-02-28T08:07:17Z</time>
      </trkpt>
      <trkpt lat="49.02538" lon="6.65989">
        <ele>259.21</ele>
        <time>2021-02-28T08:07:35Z</time>
      </trkpt>
      <trkpt lat="49.02547" lon="6.66032">
        <ele>260.65</ele>
        <time>2021-02-28T08:07:55Z</time>
      </trkpt>
      <trkpt lat="49.02557" lon="6.66073">
        <ele>261.14</ele>
        <time>2021-02-28T08:08:14Z</time>
      </trkpt>
      <trkpt lat="49.0257" lon="6.66121">
        <ele>262.1</ele>
        <time>2021-02-28T08:08:36Z</time>
      </trkpt>
      <trkpt lat="49.02581" lon="6.66167">
        <ele>261.14</ele>
        <time>2021-02-28T08:08:57Z</time>
      </trkpt>
      <trkpt lat="49.02592" lon="6.66209">
        <ele>262.58</ele>
        <time>2021-02-28T08:09:16Z</time>
      </trkpt>
      <trkpt lat="49.02601" lon="6.66259">
        <ele>260.65</ele>
        <time>2021-02-28T08:09:38Z</time>
      </trkpt>
      <trkpt lat="49.02603" lon="6.66306">
        <ele>260.17</ele>
        <time>2021-02-28T08:09:58Z</time>
      </trkpt>
      <trkpt lat="49.02599" lon="6.66353">
        <ele>259.21</ele>
        <time>2021-02-28T08:10:18Z</time>
      </trkpt>
      <trkpt lat="49.02597" lon="6.664">
        <ele>256.33</ele>
        <time>2021-02-28T08:10:38Z</time>
      </trkpt>
      <trkpt lat="49.02599" lon="6.66452">
        <ele>256.81</ele>
        <time>2021-02-28T08:11:00Z</time>
      </trkpt>
      <trkpt lat="49.02601" lon="6.66497">
        <ele>256.33</ele>
        <time>2021-02-28T08:11:20Z</time>
      </trkpt>
      <trkpt lat="49.02606" lon="6.66541">
        <ele>254.89</ele>
        <time>2021-02-28T08:11:39Z</time>
      </trkpt>
      <trkpt lat="49.02616" lon="6.66583">
        <ele>255.37</ele>
        <time>2021-02-28T08:11:58Z</time>
      </trkpt>
      <trkpt lat="49.02625" lon="6.66624">
        <ele>254.89</ele>
        <time>2021-02-28T08:12:18Z</time>
      </trkpt>
      <trkpt lat="49.02636" lon="6.66671">
        <ele>254.41</ele>
        <time>2021-02-28T08:12:39Z</time>
      </trkpt>
      <trkpt lat="49.02641" lon="6.66685">
        <ele>256.33</ele>
        <time>2021-02-28T08:12:46Z</time>
      </trkpt>
      <trkpt lat="49.02647" lon="6.66723">
        <ele>255.37</ele>
        <time>2021-02-28T08:13:03Z</time>
      </trkpt>
      <trkpt lat="49.02653" lon="6.66771">
        <ele>257.29</ele>
        <time>2021-02-28T08:13:24Z</time>
      </trkpt>
      <trkpt lat="49.02653" lon="6.6681">
        <ele>253.93</ele>
        <time>2021-02-28T08:13:40Z</time>
      </trkpt>
      <trkpt lat="49.02652" lon="6.66824">
        <ele>253.44</ele>
        <time>2021-02-28T08:13:46Z</time>
      </trkpt>
      <trkpt lat="49.02642" lon="6.66871">
        <ele>254.89</ele>
        <time>2021-02-28T08:14:07Z</time>
      </trkpt>
      <trkpt lat="49.02625" lon="6.66912">
        <ele>253.93</ele>
        <time>2021-02-28T08:14:28Z</time>
      </trkpt>
      <trkpt lat="49.02604" lon="6.66956">
        <ele>252</ele>
        <time>2021-02-28T08:14:52Z</time>
      </trkpt>
      <trkpt lat="49.02585" lon="6.66991">
        <ele>251.04</ele>
        <time>2021-02-28T08:15:11Z</time>
      </trkpt>
      <trkpt lat="49.02566" lon="6.67028">
        <ele>250.08</ele>
        <time>2021-02-28T08:15:31Z</time>
      </trkpt>
      <trkpt lat="49.02551" lon="6.67079">
        <ele>248.64</ele>
        <time>2021-02-28T08:15:54Z</time>
      </trkpt>
      <trkpt lat="49.02543" lon="6.6713">
        <ele>248.16</ele>
        <time>2021-02-28T08:16:17Z</time>
      </trkpt>
      <trkpt lat="49.02544" lon="6.67162">
        <ele>248.16</ele>
        <time>2021-02-28T08:16:32Z</time>
      </trkpt>
      <trkpt lat="49.02546" lon="6.67203">
        <ele>247.68</ele>
        <time>2021-02-28T08:16:50Z</time>
      </trkpt>
      <trkpt lat="49.02557" lon="6.67246">
        <ele>248.16</ele>
        <time>2021-02-28T08:17:09Z</time>
      </trkpt>
      <trkpt lat="49.02569" lon="6.67288">
        <ele>247.68</ele>
        <time>2021-02-28T08:17:28Z</time>
      </trkpt>
      <trkpt lat="49.02579" lon="6.67326">
        <ele>249.12</ele>
        <time>2021-02-28T08:17:45Z</time>
      </trkpt>
      <trkpt lat="49.0259" lon="6.67372">
        <ele>249.6</ele>
        <time>2021-02-28T08:18:05Z</time>
      </trkpt>
      <trkpt lat="49.02599" lon="6.67404">
        <ele>250.08</ele>
        <time>2021-02-28T08:18:20Z</time>
      </trkpt>
      <trkpt lat="49.02608" lon="6.6744">
        <ele>251.52</ele>
        <time>2021-02-28T08:18:37Z</time>
      </trkpt>
      <trkpt lat="49.02622" lon="6.67469">
        <ele>253.44</ele>
        <time>2021-02-28T08:18:55Z</time>
      </trkpt>
      <trkpt lat="49.02647" lon="6.67457">
        <ele>251.52</ele>
        <time>2021-02-28T08:19:13Z</time>
      </trkpt>
      <trkpt lat="49.02682" lon="6.67437">
        <ele>252.96</ele>
        <time>2021-02-28T08:19:37Z</time>
      </trkpt>
      <trkpt lat="49.0271" lon="6.6742">
        <ele>252.96</ele>
        <time>2021-02-28T08:19:57Z</time>
      </trkpt>
      <trkpt lat="49.02739" lon="6.67406">
        <ele>253.93</ele>
        <time>2021-02-28T08:20:16Z</time>
      </trkpt>
      <trkpt lat="49.02774" lon="6.67397">
        <ele>256.33</ele>
        <time>2021-02-28T08:20:39Z</time>
      </trkpt>
      <trkpt lat="49.02806" lon="6.67384">
        <ele>256.81</ele>
        <time>2021-02-28T08:21:00Z</time>
      </trkpt>
      <trkpt lat="49.02841" lon="6.67363">
        <ele>258.73</ele>
        <time>2021-02-28T08:21:25Z</time>
      </trkpt>
      <trkpt lat="49.02882" lon="6.67338">
        <ele>259.69</ele>
        <time>2021-02-28T08:21:55Z</time>
      </trkpt>
      <trkpt lat="49.02921" lon="6.67316">
        <ele>260.65</ele>
        <time>2021-02-28T08:22:22Z</time>
      </trkpt>
      <trkpt lat="49.02959" lon="6.67294">
        <ele>263.54</ele>
        <time>2021-02-28T08:22:49Z</time>
      </trkpt>
      <trkpt lat="49.02991" lon="6.67271">
        <ele>262.1</ele>
        <time>2021-02-28T08:23:13Z</time>
      </trkpt>
      <trkpt lat="49.03016" lon="6.67237">
        <ele>260.65</ele>
        <time>2021-02-28T08:23:35Z</time>
      </trkpt>
      <trkpt lat="49.03028" lon="6.6719">
        <ele>259.69</ele>
        <time>2021-02-28T08:23:56Z</time>
      </trkpt>
      <trkpt lat="49.03045" lon="6.67151">
        <ele>259.21</ele>
        <time>2021-02-28T08:24:17Z</time>
      </trkpt>
      <trkpt lat="49.03068" lon="6.67116">
        <ele>259.69</ele>
        <time>2021-02-28T08:24:38Z</time>
      </trkpt>
      <trkpt lat="49.03088" lon="6.67082">
        <ele>260.65</ele>
        <time>2021-02-28T08:24:58Z</time>
      </trkpt>
      <trkpt lat="49.03116" lon="6.6704">
        <ele>261.62</ele>
        <time>2021-02-28T08:25:24Z</time>
      </trkpt>
      <trkpt lat="49.03143" lon="6.67001">
        <ele>262.58</ele>
        <time>2021-02-28T08:25:49Z</time>
      </trkpt>
      <trkpt lat="49.03166" lon="6.66972">
        <ele>265.94</ele>
        <time>2021-02-28T08:26:10Z</time>
      </trkpt>
      <trkpt lat="49.03198" lon="6.66942">
        <ele>266.42</ele>
        <time>2021-02-28T08:26:36Z</time>
      </trkpt>
      <trkpt lat="49.03234" lon="6.66919">
        <ele>267.86</ele>
        <time>2021-02-28T08:27:02Z</time>
      </trkpt>
      <trkpt lat="49.03268" lon="6.66898">
        <ele>264.98</ele>
        <time>2021-02-28T08:27:27Z</time>
      </trkpt>
      <trkpt lat="49.03305" lon="6.66878">
        <ele>262.58</ele>
        <time>2021-02-28T08:27:53Z</time>
      </trkpt>
      <trkpt lat="49.03341" lon="6.66871">
        <ele>261.62</ele>
        <time>2021-02-28T08:28:18Z</time>
      </trkpt>
      <trkpt lat="49.03378" lon="6.66888">
        <ele>261.14</ele>
        <time>2021-02-28T08:28:44Z</time>
      </trkpt>
      <trkpt lat="49.03391" lon="6.66893">
        <ele>261.62</ele>
        <time>2021-02-28T08:28:53Z</time>
      </trkpt>
      <trkpt lat="49.03428" lon="6.66893">
        <ele>261.62</ele>
        <time>2021-02-28T08:29:18Z</time>
      </trkpt>
      <trkpt lat="49.03455" lon="6.66913">
        <ele>259.69</ele>
        <time>2021-02-28T08:29:40Z</time>
      </trkpt>
      <trkpt lat="49.03468" lon="6.66957">
        <ele>258.73</ele>
        <time>2021-02-28T08:30:01Z</time>
      </trkpt>
      <trkpt lat="49.03479" lon="6.66996">
        <ele>258.25</ele>
        <time>2021-02-28T08:30:20Z</time>
      </trkpt>
      <trkpt lat="49.03495" lon="6.67043">
        <ele>257.29</ele>
        <time>2021-02-28T08:30:42Z</time>
      </trkpt>
      <trkpt lat="49.03516" lon="6.67088">
        <ele>260.17</ele>
        <time>2021-02-28T08:31:06Z</time>
      </trkpt>
      <trkpt lat="49.03522" lon="6.67092">
        <ele>259.21</ele>
        <time>2021-02-28T08:31:10Z</time>
      </trkpt>
      <trkpt lat="49.0355" lon="6.67109">
        <ele>259.21</ele>
        <time>2021-02-28T08:31:31Z</time>
      </trkpt>
      <trkpt lat="49.03571" lon="6.67129">
        <ele>259.21</ele>
        <time>2021-02-28T08:31:48Z</time>
      </trkpt>
      <trkpt lat="49.03602" lon="6.67149">
        <ele>260.17</ele>
        <time>2021-02-28T08:32:10Z</time>
      </trkpt>
      <trkpt lat="49.03628" lon="6.6717">
        <ele>259.69</ele>
        <time>2021-02-28T08:32:30Z</time>
      </trkpt>
      <trkpt lat="49.03659" lon="6.67196">
        <ele>261.14</ele>
        <time>2021-02-28T08:32:54Z</time>
      </trkpt>
      <trkpt lat="49.03691" lon="6.67217">
        <ele>262.1</ele>
        <time>2021-02-28T08:33:17Z</time>
      </trkpt>
      <trkpt lat="49.0372" lon="6.67238">
        <ele>262.58</ele>
        <time>2021-02-28T08:33:39Z</time>
      </trkpt>
      <trkpt lat="49.03744" lon="6.67258">
        <ele>262.1</ele>
        <time>2021-02-28T08:33:58Z</time>
      </trkpt>
      <trkpt lat="49.03771" lon="6.6728">
        <ele>262.58</ele>
        <time>2021-02-28T08:34:19Z</time>
      </trkpt>
      <trkpt lat="49.03801" lon="6.67302">
        <ele>263.06</ele>
        <time>2021-02-28T08:34:41Z</time>
      </trkpt>
      <trkpt lat="49.03834" lon="6.67327">
        <ele>264.5</ele>
        <time>2021-02-28T08:35:07Z</time>
      </trkpt>
      <trkpt lat="49.03864" lon="6.6735">
        <ele>264.5</ele>
        <time>2021-02-28T08:35:30Z</time>
      </trkpt>
      <trkpt lat="49.03894" lon="6.67375">
        <ele>265.94</ele>
        <time>2021-02-28T08:35:53Z</time>
      </trkpt>
      <trkpt lat="49.03926" lon="6.67398">
        <ele>267.38</ele>
        <time>2021-02-28T08:36:17Z</time>
      </trkpt>
      <trkpt lat="49.03959" lon="6.67425">
        <ele>269.31</ele>
        <time>2021-02-28T08:36:43Z</time>
      </trkpt>
      <trkpt lat="49.03981" lon="6.67447">
        <ele>268.35</ele>
        <time>2021-02-28T08:37:02Z</time>
      </trkpt>
      <trkpt lat="49.03996" lon="6.67485">
        <ele>269.31</ele>
        <time>2021-02-28T08:37:23Z</time>
      </trkpt>
      <trkpt lat="49.04002" lon="6.67508">
        <ele>268.83</ele>
        <time>2021-02-28T08:37:34Z</time>
      </trkpt>
      <trkpt lat="49.04016" lon="6.67553">
        <ele>268.35</ele>
        <time>2021-02-28T08:37:56Z</time>
      </trkpt>
      <trkpt lat="49.04028" lon="6.6759">
        <ele>268.83</ele>
        <time>2021-02-28T08:38:14Z</time>
      </trkpt>
      <trkpt lat="49.04039" lon="6.67628">
        <ele>269.31</ele>
        <time>2021-02-28T08:38:32Z</time>
      </trkpt>
      <trkpt lat="49.04051" lon="6.67668">
        <ele>266.42</ele>
        <time>2021-02-28T08:38:52Z</time>
      </trkpt>
      <trkpt lat="49.04066" lon="6.67712">
        <ele>267.86</ele>
        <time>2021-02-28T08:39:14Z</time>
      </trkpt>
      <trkpt lat="49.04077" lon="6.6775">
        <ele>264.02</ele>
        <time>2021-02-28T08:39:34Z</time>
      </trkpt>
      <trkpt lat="49.0409" lon="6.67798">
        <ele>264.02</ele>
        <time>2021-02-28T08:39:58Z</time>
      </trkpt>
      <trkpt lat="49.04093" lon="6.67804">
        <ele>265.46</ele>
        <time>2021-02-28T08:40:01Z</time>
      </trkpt>
      <trkpt lat="49.04105" lon="6.67841">
        <ele>264.5</ele>
        <time>2021-02-28T08:40:20Z</time>
      </trkpt>
      <trkpt lat="49.0412" lon="6.67882">
        <ele>264.98</ele>
        <time>2021-02-28T08:40:40Z</time>
      </trkpt>
      <trkpt lat="49.04124" lon="6.67894">
        <ele>264.5</ele>
        <time>2021-02-28T08:40:46Z</time>
      </trkpt>
      <trkpt lat="49.0414" lon="6.67923">
        <ele>264.02</ele>
        <time>2021-02-28T08:41:03Z</time>
      </trkpt>
      <trkpt lat="49.04154" lon="6.67936">
        <ele>261.14</ele>
        <time>2021-02-28T08:41:13Z</time>
      </trkpt>
      <trkpt lat="49.04175" lon="6.67953">
        <ele>257.77</ele>
        <time>2021-02-28T08:41:28Z</time>
      </trkpt>
      <trkpt lat="49.04192" lon="6.67969">
        <ele>256.33</ele>
        <time>2021-02-28T08:41:41Z</time>
      </trkpt>
      <trkpt lat="49.04214" lon="6.67984">
        <ele>253.44</ele>
        <time>2021-02-28T08:41:56Z</time>
      </trkpt>
      <trkpt lat="49.04219" lon="6.67988">
        <ele>254.41</ele>
        <time>2021-02-28T08:42:00Z</time>
      </trkpt>
      <trkpt lat="49.04224" lon="6.67992">
        <ele>252.96</ele>
        <time>2021-02-28T08:42:04Z</time>
      </trkpt>
      <trkpt lat="49.0425" lon="6.68014">
        <ele>251.52</ele>
        <time>2021-02-28T08:42:23Z</time>
      </trkpt>
      <trkpt lat="49.04267" lon="6.68026">
        <ele>251.04</ele>
        <time>2021-02-28T08:42:35Z</time>
      </trkpt>
      <trkpt lat="49.0427" lon="6.68028">
        <ele>250.08</ele>
        <time>2021-02-28T08:42:37Z</time>
      </trkpt>
      <trkpt lat="49.04302" lon="6.68047">
        <ele>248.64</ele>
        <time>2021-02-28T08:42:59Z</time>
      </trkpt>
      <trkpt lat="49.04336" lon="6.68062">
        <ele>247.68</ele>
        <time>2021-02-28T08:43:22Z</time>
      </trkpt>
      <trkpt lat="49.04369" lon="6.68068">
        <ele>248.16</ele>
        <time>2021-02-28T08:43:44Z</time>
      </trkpt>
      <trkpt lat="49.04404" lon="6.68069">
        <ele>245.27</ele>
        <time>2021-02-28T08:44:07Z</time>
      </trkpt>
      <trkpt lat="49.0444" lon="6.68062">
        <ele>246.23</ele>
        <time>2021-02-28T08:44:31Z</time>
      </trkpt>
      <trkpt lat="49.04472" lon="6.68051">
        <ele>245.27</ele>
        <time>2021-02-28T08:44:53Z</time>
      </trkpt>
      <trkpt lat="49.04504" lon="6.68038">
        <ele>245.75</ele>
        <time>2021-02-28T08:45:16Z</time>
      </trkpt>
      <trkpt lat="49.04542" lon="6.68027">
        <ele>246.72</ele>
        <time>2021-02-28T08:45:42Z</time>
      </trkpt>
      <trkpt lat="49.04582" lon="6.68013">
        <ele>247.2</ele>
        <time>2021-02-28T08:46:09Z</time>
      </trkpt>
      <trkpt lat="49.04621" lon="6.68003">
        <ele>246.23</ele>
        <time>2021-02-28T08:46:36Z</time>
      </trkpt>
      <trkpt lat="49.04649" lon="6.67994">
        <ele>246.72</ele>
        <time>2021-02-28T08:46:56Z</time>
      </trkpt>
      <trkpt lat="49.04684" lon="6.67982">
        <ele>246.72</ele>
        <time>2021-02-28T08:47:19Z</time>
      </trkpt>
      <trkpt lat="49.04729" lon="6.67965">
        <ele>246.72</ele>
        <time>2021-02-28T08:47:50Z</time>
      </trkpt>
      <trkpt lat="49.04763" lon="6.67951">
        <ele>247.68</ele>
        <time>2021-02-28T08:48:14Z</time>
      </trkpt>
      <trkpt lat="49.04802" lon="6.67936">
        <ele>246.23</ele>
        <time>2021-02-28T08:48:41Z</time>
      </trkpt>
      <trkpt lat="49.04841" lon="6.67927">
        <ele>246.23</ele>
        <time>2021-02-28T08:49:07Z</time>
      </trkpt>
      <trkpt lat="49.04878" lon="6.6792">
        <ele>246.23</ele>
        <time>2021-02-28T08:49:33Z</time>
      </trkpt>
      <trkpt lat="49.04915" lon="6.67911">
        <ele>245.75</ele>
        <time>2021-02-28T08:49:58Z</time>
      </trkpt>
      <trkpt lat="49.04955" lon="6.67897">
        <ele>245.75</ele>
        <time>2021-02-28T08:50:25Z</time>
      </trkpt>
      <trkpt lat="49.04989" lon="6.67873">
        <ele>247.2</ele>
        <time>2021-02-28T08:50:52Z</time>
      </trkpt>
      <trkpt lat="49.05013" lon="6.6783">
        <ele>246.72</ele>
        <time>2021-02-28T08:51:19Z</time>
      </trkpt>
      <trkpt lat="49.0502" lon="6.67784">
        <ele>246.23</ele>
        <time>2021-02-28T08:51:40Z</time>
      </trkpt>
      <trkpt lat="49.05016" lon="6.67727">
        <ele>246.72</ele>
        <time>2021-02-28T08:52:05Z</time>
      </trkpt>
      <trkpt lat="49.05013" lon="6.67668">
        <ele>245.27</ele>
        <time>2021-02-28T08:52:32Z</time>
      </trkpt>
      <trkpt lat="49.05008" lon="6.67608">
        <ele>245.75</ele>
        <time>2021-02-28T08:52:59Z</time>
      </trkpt>
      <trkpt lat="49.05012" lon="6.67561">
        <ele>246.72</ele>
        <time>2021-02-28T08:53:21Z</time>
      </trkpt>
      <trkpt lat="49.05035" lon="6.67528">
        <ele>246.23</ele>
        <time>2021-02-28T08:53:43Z</time>
      </trkpt>
      <trkpt lat="49.05063" lon="6.67503">
        <ele>247.68</ele>
        <time>2021-02-28T08:54:05Z</time>
      </trkpt>
      <trkpt lat="49.05086" lon="6.67476">
        <ele>248.16</ele>
        <time>2021-02-28T08:54:25Z</time>
      </trkpt>
      <trkpt lat="49.05111" lon="6.67444">
        <ele>248.16</ele>
        <time>2021-02-28T08:54:47Z</time>
      </trkpt>
      <trkpt lat="49.05137" lon="6.67408">
        <ele>249.12</ele>
        <time>2021-02-28T08:55:12Z</time>
      </trkpt>
      <trkpt lat="49.05155" lon="6.67361">
        <ele>251.04</ele>
        <time>2021-02-28T08:55:36Z</time>
      </trkpt>
      <trkpt lat="49.05159" lon="6.67318">
        <ele>254.41</ele>
        <time>2021-02-28T08:55:55Z</time>
      </trkpt>
      <trkpt lat="49.05155" lon="6.67259">
        <ele>254.41</ele>
        <time>2021-02-28T08:56:21Z</time>
      </trkpt>
      <trkpt lat="49.05153" lon="6.67211">
        <ele>257.77</ele>
        <time>2021-02-28T08:56:43Z</time>
      </trkpt>
      <trkpt lat="49.05152" lon="6.67157">
        <ele>259.21</ele>
        <time>2021-02-28T08:57:10Z</time>
      </trkpt>
      <trkpt lat="49.05154" lon="6.67154">
        <ele>260.17</ele>
        <time>2021-02-28T08:57:13Z</time>
      </trkpt>
      <trkpt lat="49.05176" lon="6.67155">
        <ele>260.65</ele>
        <time>2021-02-28T08:57:31Z</time>
      </trkpt>
      <trkpt lat="49.05178" lon="6.67154">
        <ele>260.65</ele>
        <time>2021-02-28T08:57:47Z</time>
      </trkpt>
      <trkpt lat="49.05184" lon="6.67153">
        <ele>259.69</ele>
        <time>2021-02-28T08:58:22Z</time>
      </trkpt>
      <trkpt lat="49.05215" lon="6.67156">
        <ele>259.69</ele>
        <time>2021-02-28T08:58:44Z</time>
      </trkpt>
      <trkpt lat="49.05239" lon="6.67142">
        <ele>259.69</ele>
        <time>2021-02-28T08:59:03Z</time>
      </trkpt>
      <trkpt lat="49.05275" lon="6.67116">
        <ele>260.65</ele>
        <time>2021-02-28T08:59:29Z</time>
      </trkpt>
      <trkpt lat="49.05303" lon="6.67094">
        <ele>261.14</ele>
        <time>2021-02-28T08:59:50Z</time>
      </trkpt>
      <trkpt lat="49.05328" lon="6.67077">
        <ele>261.62</ele>
        <time>2021-02-28T09:00:09Z</time>
      </trkpt>
      <trkpt lat="49.05351" lon="6.67055">
        <ele>261.14</ele>
        <time>2021-02-28T09:00:27Z</time>
      </trkpt>
      <trkpt lat="49.05375" lon="6.6702">
        <ele>257.77</ele>
        <time>2021-02-28T09:00:49Z</time>
      </trkpt>
      <trkpt lat="49.05388" lon="6.66987">
        <ele>256.81</ele>
        <time>2021-02-28T09:01:09Z</time>
      </trkpt>
      <trkpt lat="49.05397" lon="6.66964">
        <ele>256.81</ele>
        <time>2021-02-28T09:01:26Z</time>
      </trkpt>
      <trkpt lat="49.05411" lon="6.66923">
        <ele>255.85</ele>
        <time>2021-02-28T09:01:46Z</time>
      </trkpt>
      <trkpt lat="49.05431" lon="6.66881">
        <ele>255.37</ele>
        <time>2021-02-28T09:02:07Z</time>
      </trkpt>
      <trkpt lat="49.05446" lon="6.66844">
        <ele>254.41</ele>
        <time>2021-02-28T09:02:26Z</time>
      </trkpt>
      <trkpt lat="49.05457" lon="6.6682">
        <ele>255.85</ele>
        <time>2021-02-28T09:02:38Z</time>
      </trkpt>
      <trkpt lat="49.05479" lon="6.66791">
        <ele>254.41</ele>
        <time>2021-02-28T09:02:57Z</time>
      </trkpt>
      <trkpt lat="49.05498" lon="6.66769">
        <ele>254.89</ele>
        <time>2021-02-28T09:03:13Z</time>
      </trkpt>
      <trkpt lat="49.05522" lon="6.66745">
        <ele>255.37</ele>
        <time>2021-02-28T09:03:31Z</time>
      </trkpt>
      <trkpt lat="49.05545" lon="6.66719">
        <ele>255.37</ele>
        <time>2021-02-28T09:03:51Z</time>
      </trkpt>
      <trkpt lat="49.05573" lon="6.66685">
        <ele>256.81</ele>
        <time>2021-02-28T09:04:13Z</time>
      </trkpt>
      <trkpt lat="49.05597" lon="6.66654">
        <ele>257.29</ele>
        <time>2021-02-28T09:04:33Z</time>
      </trkpt>
      <trkpt lat="49.05619" lon="6.66628">
        <ele>256.33</ele>
        <time>2021-02-28T09:04:51Z</time>
      </trkpt>
      <trkpt lat="49.05642" lon="6.66603">
        <ele>257.29</ele>
        <time>2021-02-28T09:05:10Z</time>
      </trkpt>
      <trkpt lat="49.05662" lon="6.66583">
        <ele>258.25</ele>
        <time>2021-02-28T09:05:26Z</time>
      </trkpt>
      <trkpt lat="49.05671" lon="6.66566">
        <ele>259.21</ele>
        <time>2021-02-28T09:05:39Z</time>
      </trkpt>
      <trkpt lat="49.05673" lon="6.66564">
        <ele>259.21</ele>
        <time>2021-02-28T09:05:41Z</time>
      </trkpt>
      <trkpt lat="49.05682" lon="6.66558">
        <ele>257.77</ele>
        <time>2021-02-28T09:05:46Z</time>
      </trkpt>
      <trkpt lat="49.05698" lon="6.66537">
        <ele>260.17</ele>
        <time>2021-02-28T09:06:01Z</time>
      </trkpt>
      <trkpt lat="49.05702" lon="6.66505">
        <ele>258.73</ele>
        <time>2021-02-28T09:06:17Z</time>
      </trkpt>
      <trkpt lat="49.05704" lon="6.6649">
        <ele>259.21</ele>
        <time>2021-02-28T09:06:33Z</time>
      </trkpt>
      <trkpt lat="49.05704" lon="6.66489">
        <ele>258.25</ele>
        <time>2021-02-28T09:06:42Z</time>
      </trkpt>
      <trkpt lat="49.05727" lon="6.66472">
        <ele>258.25</ele>
        <time>2021-02-28T09:07:03Z</time>
      </trkpt>
      <trkpt lat="49.05749" lon="6.66469">
        <ele>257.77</ele>
        <time>2021-02-28T09:07:19Z</time>
      </trkpt>
      <trkpt lat="49.05767" lon="6.66476">
        <ele>258.25</ele>
        <time>2021-02-28T09:07:32Z</time>
      </trkpt>
      <trkpt lat="49.05777" lon="6.66478">
        <ele>259.21</ele>
        <time>2021-02-28T09:07:41Z</time>
      </trkpt>
      <trkpt lat="49.05802" lon="6.6649">
        <ele>259.21</ele>
        <time>2021-02-28T09:07:59Z</time>
      </trkpt>
      <trkpt lat="49.05832" lon="6.66496">
        <ele>260.17</ele>
        <time>2021-02-28T09:08:20Z</time>
      </trkpt>
      <trkpt lat="49.05856" lon="6.66468">
        <ele>263.06</ele>
        <time>2021-02-28T09:08:40Z</time>
      </trkpt>
      <trkpt lat="49.05871" lon="6.66443">
        <ele>262.58</ele>
        <time>2021-02-28T09:08:56Z</time>
      </trkpt>
      <trkpt lat="49.05885" lon="6.66397">
        <ele>264.5</ele>
        <time>2021-02-28T09:09:19Z</time>
      </trkpt>
      <trkpt lat="49.05896" lon="6.66348">
        <ele>263.54</ele>
        <time>2021-02-28T09:09:40Z</time>
      </trkpt>
      <trkpt lat="49.05912" lon="6.66319">
        <ele>265.46</ele>
        <time>2021-02-28T09:09:57Z</time>
      </trkpt>
      <trkpt lat="49.05917" lon="6.66311">
        <ele>265.94</ele>
        <time>2021-02-28T09:10:02Z</time>
      </trkpt>
      <trkpt lat="49.05935" lon="6.6628">
        <ele>266.42</ele>
        <time>2021-02-28T09:10:20Z</time>
      </trkpt>
      <trkpt lat="49.05957" lon="6.66246">
        <ele>267.38</ele>
        <time>2021-02-28T09:10:39Z</time>
      </trkpt>
      <trkpt lat="49.05975" lon="6.66213">
        <ele>266.42</ele>
        <time>2021-02-28T09:10:58Z</time>
      </trkpt>
      <trkpt lat="49.05989" lon="6.66175">
        <ele>268.35</ele>
        <time>2021-02-28T09:11:18Z</time>
      </trkpt>
      <trkpt lat="49.06006" lon="6.66127">
        <ele>269.79</ele>
        <time>2021-02-28T09:11:42Z</time>
      </trkpt>
      <trkpt lat="49.06018" lon="6.66092">
        <ele>270.27</ele>
        <time>2021-02-28T09:12:00Z</time>
      </trkpt>
      <trkpt lat="49.06032" lon="6.66053">
        <ele>270.75</ele>
        <time>2021-02-28T09:12:20Z</time>
      </trkpt>
      <trkpt lat="49.06051" lon="6.66009">
        <ele>271.23</ele>
        <time>2021-02-28T09:12:43Z</time>
      </trkpt>
      <trkpt lat="49.06069" lon="6.6597">
        <ele>272.67</ele>
        <time>2021-02-28T09:13:04Z</time>
      </trkpt>
      <trkpt lat="49.06086" lon="6.65931">
        <ele>274.11</ele>
        <time>2021-02-28T09:13:25Z</time>
      </trkpt>
      <trkpt lat="49.0609" lon="6.6592">
        <ele>275.56</ele>
        <time>2021-02-28T09:13:30Z</time>
      </trkpt>
      <trkpt lat="49.06109" lon="6.65877">
        <ele>276.52</ele>
        <time>2021-02-28T09:13:53Z</time>
      </trkpt>
      <trkpt lat="49.0613" lon="6.65837">
        <ele>278.92</ele>
        <time>2021-02-28T09:14:16Z</time>
      </trkpt>
      <trkpt lat="49.06157" lon="6.65798">
        <ele>279.88</ele>
        <time>2021-02-28T09:14:41Z</time>
      </trkpt>
      <trkpt lat="49.0618" lon="6.65762">
        <ele>280.84</ele>
        <time>2021-02-28T09:15:05Z</time>
      </trkpt>
      <trkpt lat="49.06196" lon="6.65739">
        <ele>284.21</ele>
        <time>2021-02-28T09:15:20Z</time>
      </trkpt>
      <trkpt lat="49.06217" lon="6.65699">
        <ele>286.13</ele>
        <time>2021-02-28T09:15:43Z</time>
      </trkpt>
      <trkpt lat="49.06239" lon="6.65665">
        <ele>285.65</ele>
        <time>2021-02-28T09:16:05Z</time>
      </trkpt>
      <trkpt lat="49.06261" lon="6.65633">
        <ele>287.09</ele>
        <time>2021-02-28T09:16:27Z</time>
      </trkpt>
      <trkpt lat="49.06267" lon="6.65629">
        <ele>287.57</ele>
        <time>2021-02-28T09:16:46Z</time>
      </trkpt>
      <trkpt lat="49.06265" lon="6.65631">
        <ele>286.13</ele>
        <time>2021-02-28T09:17:05Z</time>
      </trkpt>
      <trkpt lat="49.06271" lon="6.65627">
        <ele>288.05</ele>
        <time>2021-02-28T09:17:29Z</time>
      </trkpt>
      <trkpt lat="49.0629" lon="6.65597">
        <ele>289.01</ele>
        <time>2021-02-28T09:17:47Z</time>
      </trkpt>
      <trkpt lat="49.06311" lon="6.6557">
        <ele>289.49</ele>
        <time>2021-02-28T09:18:06Z</time>
      </trkpt>
      <trkpt lat="49.06333" lon="6.65545">
        <ele>291.42</ele>
        <time>2021-02-28T09:18:25Z</time>
      </trkpt>
      <trkpt lat="49.06333" lon="6.65545">
        <ele>290.46</ele>
        <time>2021-02-28T09:18:26Z</time>
      </trkpt>
      <trkpt lat="49.06361" lon="6.65538">
        <ele>293.82</ele>
        <time>2021-02-28T09:18:46Z</time>
      </trkpt>
      <trkpt lat="49.064" lon="6.65535">
        <ele>294.3</ele>
        <time>2021-02-28T09:19:07Z</time>
      </trkpt>
      <trkpt lat="49.06422" lon="6.65529">
        <ele>297.67</ele>
        <time>2021-02-28T09:19:23Z</time>
      </trkpt>
      <trkpt lat="49.06447" lon="6.65523">
        <ele>298.63</ele>
        <time>2021-02-28T09:19:41Z</time>
      </trkpt>
      <trkpt lat="49.0646" lon="6.65514">
        <ele>299.11</ele>
        <time>2021-02-28T09:19:56Z</time>
      </trkpt>
      <trkpt lat="49.06489" lon="6.65492">
        <ele>303.43</ele>
        <time>2021-02-28T09:20:17Z</time>
      </trkpt>
      <trkpt lat="49.06511" lon="6.6548">
        <ele>302.95</ele>
        <time>2021-02-28T09:20:27Z</time>
      </trkpt>
      <trkpt lat="49.06516" lon="6.65486">
        <ele>303.43</ele>
        <time>2021-02-28T09:20:31Z</time>
      </trkpt>
      <trkpt lat="49.06529" lon="6.65516">
        <ele>304.39</ele>
        <time>2021-02-28T09:20:48Z</time>
      </trkpt>
      <trkpt lat="49.06536" lon="6.6553">
        <ele>307.28</ele>
        <time>2021-02-28T09:20:56Z</time>
      </trkpt>
      <trkpt lat="49.0655" lon="6.6556">
        <ele>308.24</ele>
        <time>2021-02-28T09:21:12Z</time>
      </trkpt>
      <trkpt lat="49.06564" lon="6.65588">
        <ele>309.2</ele>
        <time>2021-02-28T09:21:28Z</time>
      </trkpt>
      <trkpt lat="49.06581" lon="6.65621">
        <ele>310.64</ele>
        <time>2021-02-28T09:21:47Z</time>
      </trkpt>
      <trkpt lat="49.06598" lon="6.65653">
        <ele>312.57</ele>
        <time>2021-02-28T09:22:06Z</time>
      </trkpt>
      <trkpt lat="49.06616" lon="6.65692">
        <ele>314.01</ele>
        <time>2021-02-28T09:22:26Z</time>
      </trkpt>
      <trkpt lat="49.06634" lon="6.65726">
        <ele>312.09</ele>
        <time>2021-02-28T09:22:45Z</time>
      </trkpt>
      <trkpt lat="49.06651" lon="6.65758">
        <ele>312.57</ele>
        <time>2021-02-28T09:23:03Z</time>
      </trkpt>
      <trkpt lat="49.06671" lon="6.65795">
        <ele>312.57</ele>
        <time>2021-02-28T09:23:23Z</time>
      </trkpt>
      <trkpt lat="49.0669" lon="6.65817">
        <ele>312.57</ele>
        <time>2021-02-28T09:23:39Z</time>
      </trkpt>
      <trkpt lat="49.06709" lon="6.6584">
        <ele>312.57</ele>
        <time>2021-02-28T09:23:54Z</time>
      </trkpt>
      <trkpt lat="49.06712" lon="6.65864">
        <ele>308.72</ele>
        <time>2021-02-28T09:24:04Z</time>
      </trkpt>
      <trkpt lat="49.06732" lon="6.65869">
        <ele>309.68</ele>
        <time>2021-02-28T09:24:18Z</time>
      </trkpt>
      <trkpt lat="49.0676" lon="6.65873">
        <ele>311.12</ele>
        <time>2021-02-28T09:24:37Z</time>
      </trkpt>
      <trkpt lat="49.06788" lon="6.65886">
        <ele>311.12</ele>
        <time>2021-02-28T09:24:54Z</time>
      </trkpt>
      <trkpt lat="49.06808" lon="6.65895">
        <ele>311.12</ele>
        <time>2021-02-28T09:25:08Z</time>
      </trkpt>
      <trkpt lat="49.06824" lon="6.65926">
        <ele>309.2</ele>
        <time>2021-02-28T09:25:27Z</time>
      </trkpt>
      <trkpt lat="49.06833" lon="6.65964">
        <ele>310.64</ele>
        <time>2021-02-28T09:25:44Z</time>
      </trkpt>
      <trkpt lat="49.06842" lon="6.66006">
        <ele>309.2</ele>
        <time>2021-02-28T09:26:02Z</time>
      </trkpt>
      <trkpt lat="49.06851" lon="6.66048">
        <ele>309.2</ele>
        <time>2021-02-28T09:26:21Z</time>
      </trkpt>
      <trkpt lat="49.0686" lon="6.66085">
        <ele>309.68</ele>
        <time>2021-02-28T09:26:37Z</time>
      </trkpt>
      <trkpt lat="49.06867" lon="6.66119">
        <ele>308.72</ele>
        <time>2021-02-28T09:26:52Z</time>
      </trkpt>
      <trkpt lat="49.06878" lon="6.66171">
        <ele>309.68</ele>
        <time>2021-02-28T09:27:11Z</time>
      </trkpt>
      <trkpt lat="49.06887" lon="6.66213">
        <ele>310.16</ele>
        <time>2021-02-28T09:27:27Z</time>
      </trkpt>
      <trkpt lat="49.06898" lon="6.66255">
        <ele>308.72</ele>
        <time>2021-02-28T09:27:45Z</time>
      </trkpt>
      <trkpt lat="49.06901" lon="6.66262">
        <ele>310.16</ele>
        <time>2021-02-28T09:27:48Z</time>
      </trkpt>
      <trkpt lat="49.06912" lon="6.66301">
        <ele>312.57</ele>
        <time>2021-02-28T09:28:05Z</time>
      </trkpt>
      <trkpt lat="49.0691" lon="6.66337">
        <ele>314.49</ele>
        <time>2021-02-28T09:28:20Z</time>
      </trkpt>
      <trkpt lat="49.06908" lon="6.66375">
        <ele>314.01</ele>
        <time>2021-02-28T09:28:36Z</time>
      </trkpt>
      <trkpt lat="49.06889" lon="6.66406">
        <ele>312.09</ele>
        <time>2021-02-28T09:28:51Z</time>
      </trkpt>
      <trkpt lat="49.06864" lon="6.66431">
        <ele>312.09</ele>
        <time>2021-02-28T09:29:08Z</time>
      </trkpt>
      <trkpt lat="49.06853" lon="6.6645">
        <ele>313.05</ele>
        <time>2021-02-28T09:29:19Z</time>
      </trkpt>
      <trkpt lat="49.06857" lon="6.66465">
        <ele>314.49</ele>
        <time>2021-02-28T09:29:26Z</time>
      </trkpt>
      <trkpt lat="49.06874" lon="6.66476">
        <ele>317.85</ele>
        <time>2021-02-28T09:29:39Z</time>
      </trkpt>
      <trkpt lat="49.06902" lon="6.66487">
        <ele>318.81</ele>
        <time>2021-02-28T09:29:59Z</time>
      </trkpt>
      <trkpt lat="49.06927" lon="6.66485">
        <ele>321.22</ele>
        <time>2021-02-28T09:30:16Z</time>
      </trkpt>
      <trkpt lat="49.06936" lon="6.66467">
        <ele>321.7</ele>
        <time>2021-02-28T09:30:30Z</time>
      </trkpt>
      <trkpt lat="49.06939" lon="6.66465">
        <ele>321.7</ele>
        <time>2021-02-28T09:30:47Z</time>
      </trkpt>
      <trkpt lat="49.06938" lon="6.66465">
        <ele>322.18</ele>
        <time>2021-02-28T09:31:16Z</time>
      </trkpt>
      <trkpt lat="49.06941" lon="6.66465">
        <ele>322.18</ele>
        <time>2021-02-28T09:31:48Z</time>
      </trkpt>
      <trkpt lat="49.06942" lon="6.66466">
        <ele>322.18</ele>
        <time>2021-02-28T09:32:19Z</time>
      </trkpt>
      <trkpt lat="49.06942" lon="6.66466">
        <ele>322.66</ele>
        <time>2021-02-28T09:32:44Z</time>
      </trkpt>
      <trkpt lat="49.06943" lon="6.66465">
        <ele>322.66</ele>
        <time>2021-02-28T09:33:06Z</time>
      </trkpt>
      <trkpt lat="49.06945" lon="6.66465">
        <ele>321.7</ele>
        <time>2021-02-28T09:33:12Z</time>
      </trkpt>
      <trkpt lat="49.06946" lon="6.66458">
        <ele>323.14</ele>
        <time>2021-02-28T09:33:17Z</time>
      </trkpt>
      <trkpt lat="49.06964" lon="6.66458">
        <ele>324.1</ele>
        <time>2021-02-28T09:33:31Z</time>
      </trkpt>
      <trkpt lat="49.06986" lon="6.66444">
        <ele>321.7</ele>
        <time>2021-02-28T09:33:47Z</time>
      </trkpt>
      <trkpt lat="49.06999" lon="6.66419">
        <ele>322.18</ele>
        <time>2021-02-28T09:34:02Z</time>
      </trkpt>
      <trkpt lat="49.07009" lon="6.66397">
        <ele>323.14</ele>
        <time>2021-02-28T09:34:15Z</time>
      </trkpt>
      <trkpt lat="49.07025" lon="6.66375">
        <ele>323.62</ele>
        <time>2021-02-28T09:34:30Z</time>
      </trkpt>
      <trkpt lat="49.07053" lon="6.66352">
        <ele>323.14</ele>
        <time>2021-02-28T09:34:48Z</time>
      </trkpt>
      <trkpt lat="49.07075" lon="6.66334">
        <ele>324.1</ele>
        <time>2021-02-28T09:35:04Z</time>
      </trkpt>
      <trkpt lat="49.07098" lon="6.66317">
        <ele>324.58</ele>
        <time>2021-02-28T09:35:19Z</time>
      </trkpt>
      <trkpt lat="49.07117" lon="6.66301">
        <ele>324.58</ele>
        <time>2021-02-28T09:35:34Z</time>
      </trkpt>
      <trkpt lat="49.0714" lon="6.66286">
        <ele>325.06</ele>
        <time>2021-02-28T09:35:50Z</time>
      </trkpt>
      <trkpt lat="49.07159" lon="6.66273">
        <ele>326.02</ele>
        <time>2021-02-28T09:36:03Z</time>
      </trkpt>
      <trkpt lat="49.0718" lon="6.66256">
        <ele>326.99</ele>
        <time>2021-02-28T09:36:19Z</time>
      </trkpt>
      <trkpt lat="49.07203" lon="6.66238">
        <ele>327.95</ele>
        <time>2021-02-28T09:36:36Z</time>
      </trkpt>
      <trkpt lat="49.07222" lon="6.66224">
        <ele>326.02</ele>
        <time>2021-02-28T09:36:49Z</time>
      </trkpt>
      <trkpt lat="49.07243" lon="6.66205">
        <ele>326.99</ele>
        <time>2021-02-28T09:37:05Z</time>
      </trkpt>
      <trkpt lat="49.07268" lon="6.66187">
        <ele>328.43</ele>
        <time>2021-02-28T09:37:21Z</time>
      </trkpt>
      <trkpt lat="49.07275" lon="6.66183">
        <ele>328.43</ele>
        <time>2021-02-28T09:37:25Z</time>
      </trkpt>
      <trkpt lat="49.07298" lon="6.66162">
        <ele>328.91</ele>
        <time>2021-02-28T09:37:44Z</time>
      </trkpt>
      <trkpt lat="49.07316" lon="6.66148">
        <ele>328.43</ele>
        <time>2021-02-28T09:37:59Z</time>
      </trkpt>
      <trkpt lat="49.07342" lon="6.66132">
        <ele>327.95</ele>
        <time>2021-02-28T09:38:17Z</time>
      </trkpt>
      <trkpt lat="49.0735" lon="6.66128">
        <ele>328.91</ele>
        <time>2021-02-28T09:38:22Z</time>
      </trkpt>
      <trkpt lat="49.0737" lon="6.66116">
        <ele>328.43</ele>
        <time>2021-02-28T09:38:34Z</time>
      </trkpt>
      <trkpt lat="49.07412" lon="6.66093">
        <ele>327.95</ele>
        <time>2021-02-28T09:38:52Z</time>
      </trkpt>
      <trkpt lat="49.07433" lon="6.66082">
        <ele>328.43</ele>
        <time>2021-02-28T09:39:08Z</time>
      </trkpt>
      <trkpt lat="49.07447" lon="6.66075">
        <ele>328.43</ele>
        <time>2021-02-28T09:39:18Z</time>
      </trkpt>
      <trkpt lat="49.07476" lon="6.66072">
        <ele>330.35</ele>
        <time>2021-02-28T09:39:34Z</time>
      </trkpt>
      <trkpt lat="49.07503" lon="6.66067">
        <ele>329.87</ele>
        <time>2021-02-28T09:39:48Z</time>
      </trkpt>
      <trkpt lat="49.07532" lon="6.66061">
        <ele>332.27</ele>
        <time>2021-02-28T09:40:02Z</time>
      </trkpt>
      <trkpt lat="49.07561" lon="6.66057">
        <ele>330.83</ele>
        <time>2021-02-28T09:40:18Z</time>
      </trkpt>
      <trkpt lat="49.0757" lon="6.66055">
        <ele>327.95</ele>
        <time>2021-02-28T09:40:23Z</time>
      </trkpt>
      <trkpt lat="49.0759" lon="6.66052">
        <ele>330.35</ele>
        <time>2021-02-28T09:40:32Z</time>
      </trkpt>
      <trkpt lat="49.07623" lon="6.66054">
        <ele>332.27</ele>
        <time>2021-02-28T09:40:49Z</time>
      </trkpt>
      <trkpt lat="49.07647" lon="6.66054">
        <ele>331.79</ele>
        <time>2021-02-28T09:41:07Z</time>
      </trkpt>
      <trkpt lat="49.07669" lon="6.66053">
        <ele>332.75</ele>
        <time>2021-02-28T09:41:25Z</time>
      </trkpt>
      <trkpt lat="49.07684" lon="6.66051">
        <ele>334.2</ele>
        <time>2021-02-28T09:41:37Z</time>
      </trkpt>
      <trkpt lat="49.07715" lon="6.66047">
        <ele>333.71</ele>
        <time>2021-02-28T09:41:55Z</time>
      </trkpt>
      <trkpt lat="49.07745" lon="6.66043">
        <ele>332.27</ele>
        <time>2021-02-28T09:42:11Z</time>
      </trkpt>
      <trkpt lat="49.07777" lon="6.66039">
        <ele>333.71</ele>
        <time>2021-02-28T09:42:28Z</time>
      </trkpt>
      <trkpt lat="49.07814" lon="6.66038">
        <ele>334.68</ele>
        <time>2021-02-28T09:42:48Z</time>
      </trkpt>
      <trkpt lat="49.07849" lon="6.66038">
        <ele>334.68</ele>
        <time>2021-02-28T09:43:06Z</time>
      </trkpt>
      <trkpt lat="49.0788" lon="6.66048">
        <ele>335.64</ele>
        <time>2021-02-28T09:43:26Z</time>
      </trkpt>
      <trkpt lat="49.07909" lon="6.66067">
        <ele>335.64</ele>
        <time>2021-02-28T09:43:47Z</time>
      </trkpt>
      <trkpt lat="49.07935" lon="6.66082">
        <ele>338.04</ele>
        <time>2021-02-28T09:44:04Z</time>
      </trkpt>
      <trkpt lat="49.07954" lon="6.66093">
        <ele>337.08</ele>
        <time>2021-02-28T09:44:18Z</time>
      </trkpt>
      <trkpt lat="49.07963" lon="6.66118">
        <ele>340.92</ele>
        <time>2021-02-28T09:44:32Z</time>
      </trkpt>
      <trkpt lat="49.07976" lon="6.66139">
        <ele>342.37</ele>
        <time>2021-02-28T09:44:45Z</time>
      </trkpt>
      <trkpt lat="49.07998" lon="6.66164">
        <ele>343.81</ele>
        <time>2021-02-28T09:45:03Z</time>
      </trkpt>
      <trkpt lat="49.08015" lon="6.66188">
        <ele>344.77</ele>
        <time>2021-02-28T09:45:20Z</time>
      </trkpt>
      <trkpt lat="49.08016" lon="6.66189">
        <ele>345.25</ele>
        <time>2021-02-28T09:45:23Z</time>
      </trkpt>
      <trkpt lat="49.08022" lon="6.662">
        <ele>344.29</ele>
        <time>2021-02-28T09:45:30Z</time>
      </trkpt>
      <trkpt lat="49.08041" lon="6.6623">
        <ele>347.65</ele>
        <time>2021-02-28T09:45:48Z</time>
      </trkpt>
      <trkpt lat="49.08066" lon="6.66259">
        <ele>349.1</ele>
        <time>2021-02-28T09:46:08Z</time>
      </trkpt>
      <trkpt lat="49.0808" lon="6.66286">
        <ele>351.02</ele>
        <time>2021-02-28T09:46:25Z</time>
      </trkpt>
      <trkpt lat="49.08099" lon="6.66316">
        <ele>352.94</ele>
        <time>2021-02-28T09:46:43Z</time>
      </trkpt>
      <trkpt lat="49.08106" lon="6.66321">
        <ele>352.94</ele>
        <time>2021-02-28T09:46:52Z</time>
      </trkpt>
      <trkpt lat="49.08124" lon="6.6635">
        <ele>353.9</ele>
        <time>2021-02-28T09:47:10Z</time>
      </trkpt>
      <trkpt lat="49.08141" lon="6.66375">
        <ele>354.38</ele>
        <time>2021-02-28T09:47:25Z</time>
      </trkpt>
      <trkpt lat="49.08155" lon="6.66396">
        <ele>354.86</ele>
        <time>2021-02-28T09:47:41Z</time>
      </trkpt>
      <trkpt lat="49.08175" lon="6.66422">
        <ele>355.83</ele>
        <time>2021-02-28T09:47:57Z</time>
      </trkpt>
      <trkpt lat="49.0819" lon="6.66447">
        <ele>357.27</ele>
        <time>2021-02-28T09:48:14Z</time>
      </trkpt>
      <trkpt lat="49.08201" lon="6.66472">
        <ele>356.79</ele>
        <time>2021-02-28T09:48:28Z</time>
      </trkpt>
      <trkpt lat="49.0822" lon="6.66511">
        <ele>358.23</ele>
        <time>2021-02-28T09:48:49Z</time>
      </trkpt>
      <trkpt lat="49.08229" lon="6.66546">
        <ele>357.27</ele>
        <time>2021-02-28T09:49:07Z</time>
      </trkpt>
      <trkpt lat="49.08244" lon="6.66577">
        <ele>355.83</ele>
        <time>2021-02-28T09:49:25Z</time>
      </trkpt>
      <trkpt lat="49.08255" lon="6.66615">
        <ele>352.94</ele>
        <time>2021-02-28T09:49:43Z</time>
      </trkpt>
      <trkpt lat="49.0827" lon="6.66648">
        <ele>351.5</ele>
        <time>2021-02-28T09:49:59Z</time>
      </trkpt>
      <trkpt lat="49.0828" lon="6.66677">
        <ele>348.13</ele>
        <time>2021-02-28T09:50:15Z</time>
      </trkpt>
      <trkpt lat="49.08285" lon="6.66688">
        <ele>348.13</ele>
        <time>2021-02-28T09:50:23Z</time>
      </trkpt>
      <trkpt lat="49.08297" lon="6.667">
        <ele>349.1</ele>
        <time>2021-02-28T09:50:35Z</time>
      </trkpt>
      <trkpt lat="49.08301" lon="6.66707">
        <ele>349.1</ele>
        <time>2021-02-28T09:50:39Z</time>
      </trkpt>
      <trkpt lat="49.08304" lon="6.66711">
        <ele>348.13</ele>
        <time>2021-02-28T09:50:41Z</time>
      </trkpt>
      <trkpt lat="49.08318" lon="6.6676">
        <ele>348.62</ele>
        <time>2021-02-28T09:51:04Z</time>
      </trkpt>
      <trkpt lat="49.0833" lon="6.66807">
        <ele>350.54</ele>
        <time>2021-02-28T09:51:26Z</time>
      </trkpt>
      <trkpt lat="49.08334" lon="6.66854">
        <ele>349.58</ele>
        <time>2021-02-28T09:51:47Z</time>
      </trkpt>
      <trkpt lat="49.08336" lon="6.66896">
        <ele>349.1</ele>
        <time>2021-02-28T09:52:08Z</time>
      </trkpt>
      <trkpt lat="49.08337" lon="6.6694">
        <ele>348.13</ele>
        <time>2021-02-28T09:52:28Z</time>
      </trkpt>
      <trkpt lat="49.0834" lon="6.66982">
        <ele>348.13</ele>
        <time>2021-02-28T09:52:46Z</time>
      </trkpt>
      <trkpt lat="49.08351" lon="6.67026">
        <ele>348.13</ele>
        <time>2021-02-28T09:53:05Z</time>
      </trkpt>
      <trkpt lat="49.08365" lon="6.67075">
        <ele>348.13</ele>
        <time>2021-02-28T09:53:28Z</time>
      </trkpt>
      <trkpt lat="49.08377" lon="6.67113">
        <ele>348.62</ele>
        <time>2021-02-28T09:53:47Z</time>
      </trkpt>
      <trkpt lat="49.08391" lon="6.67148">
        <ele>349.58</ele>
        <time>2021-02-28T09:54:05Z</time>
      </trkpt>
      <trkpt lat="49.08404" lon="6.67188">
        <ele>350.54</ele>
        <time>2021-02-28T09:54:24Z</time>
      </trkpt>
      <trkpt lat="49.08412" lon="6.67223">
        <ele>349.1</ele>
        <time>2021-02-28T09:54:41Z</time>
      </trkpt>
      <trkpt lat="49.08423" lon="6.67269">
        <ele>350.54</ele>
        <time>2021-02-28T09:55:03Z</time>
      </trkpt>
      <trkpt lat="49.0843" lon="6.67307">
        <ele>350.06</ele>
        <time>2021-02-28T09:55:20Z</time>
      </trkpt>
      <trkpt lat="49.08435" lon="6.67327">
        <ele>351.02</ele>
        <time>2021-02-28T09:55:30Z</time>
      </trkpt>
      <trkpt lat="49.08448" lon="6.67368">
        <ele>350.06</ele>
        <time>2021-02-28T09:55:49Z</time>
      </trkpt>
      <trkpt lat="49.0845" lon="6.67374">
        <ele>350.06</ele>
        <time>2021-02-28T09:55:52Z</time>
      </trkpt>
      <trkpt lat="49.08462" lon="6.67413">
        <ele>350.54</ele>
        <time>2021-02-28T09:56:11Z</time>
      </trkpt>
      <trkpt lat="49.08475" lon="6.67456">
        <ele>349.58</ele>
        <time>2021-02-28T09:56:30Z</time>
      </trkpt>
      <trkpt lat="49.08487" lon="6.67493">
        <ele>350.06</ele>
        <time>2021-02-28T09:56:49Z</time>
      </trkpt>
      <trkpt lat="49.08499" lon="6.67537">
        <ele>351.02</ele>
        <time>2021-02-28T09:57:11Z</time>
      </trkpt>
      <trkpt lat="49.0851" lon="6.67574">
        <ele>351.02</ele>
        <time>2021-02-28T09:57:29Z</time>
      </trkpt>
      <trkpt lat="49.0852" lon="6.67612">
        <ele>351.5</ele>
        <time>2021-02-28T09:57:47Z</time>
      </trkpt>
      <trkpt lat="49.08532" lon="6.67655">
        <ele>350.54</ele>
        <time>2021-02-28T09:58:07Z</time>
      </trkpt>
      <trkpt lat="49.08544" lon="6.67694">
        <ele>350.54</ele>
        <time>2021-02-28T09:58:26Z</time>
      </trkpt>
      <trkpt lat="49.08557" lon="6.67742">
        <ele>350.54</ele>
        <time>2021-02-28T09:58:49Z</time>
      </trkpt>
      <trkpt lat="49.0856" lon="6.67748">
        <ele>348.62</ele>
        <time>2021-02-28T09:58:54Z</time>
      </trkpt>
      <trkpt lat="49.08572" lon="6.67802">
        <ele>351.5</ele>
        <time>2021-02-28T09:59:13Z</time>
      </trkpt>
      <trkpt lat="49.08585" lon="6.67857">
        <ele>351.02</ele>
        <time>2021-02-28T09:59:36Z</time>
      </trkpt>
      <trkpt lat="49.08591" lon="6.67901">
        <ele>351.98</ele>
        <time>2021-02-28T09:59:55Z</time>
      </trkpt>
      <trkpt lat="49.08596" lon="6.67955">
        <ele>352.94</ele>
        <time>2021-02-28T10:00:18Z</time>
      </trkpt>
      <trkpt lat="49.08596" lon="6.68005">
        <ele>353.42</ele>
        <time>2021-02-28T10:00:39Z</time>
      </trkpt>
      <trkpt lat="49.08598" lon="6.68041">
        <ele>352.94</ele>
        <time>2021-02-28T10:00:56Z</time>
      </trkpt>
      <trkpt lat="49.08603" lon="6.68089">
        <ele>354.38</ele>
        <time>2021-02-28T10:01:15Z</time>
      </trkpt>
      <trkpt lat="49.08611" lon="6.68133">
        <ele>354.38</ele>
        <time>2021-02-28T10:01:35Z</time>
      </trkpt>
      <trkpt lat="49.08615" lon="6.6814">
        <ele>354.38</ele>
        <time>2021-02-28T10:01:39Z</time>
      </trkpt>
      <trkpt lat="49.08626" lon="6.6818">
        <ele>353.42</ele>
        <time>2021-02-28T10:01:58Z</time>
      </trkpt>
      <trkpt lat="49.08642" lon="6.68222">
        <ele>353.42</ele>
        <time>2021-02-28T10:02:20Z</time>
      </trkpt>
      <trkpt lat="49.08659" lon="6.68253">
        <ele>352.46</ele>
        <time>2021-02-28T10:02:39Z</time>
      </trkpt>
      <trkpt lat="49.08682" lon="6.68281">
        <ele>350.54</ele>
        <time>2021-02-28T10:02:59Z</time>
      </trkpt>
      <trkpt lat="49.08708" lon="6.6831">
        <ele>349.58</ele>
        <time>2021-02-28T10:03:21Z</time>
      </trkpt>
      <trkpt lat="49.08733" lon="6.68329">
        <ele>347.17</ele>
        <time>2021-02-28T10:03:40Z</time>
      </trkpt>
      <trkpt lat="49.08761" lon="6.68344">
        <ele>345.73</ele>
        <time>2021-02-28T10:04:01Z</time>
      </trkpt>
      <trkpt lat="49.08793" lon="6.68358">
        <ele>344.77</ele>
        <time>2021-02-28T10:04:23Z</time>
      </trkpt>
      <trkpt lat="49.08822" lon="6.68371">
        <ele>342.37</ele>
        <time>2021-02-28T10:04:44Z</time>
      </trkpt>
      <trkpt lat="49.08851" lon="6.68384">
        <ele>339.48</ele>
        <time>2021-02-28T10:05:05Z</time>
      </trkpt>
      <trkpt lat="49.08875" lon="6.68398">
        <ele>337.56</ele>
        <time>2021-02-28T10:05:22Z</time>
      </trkpt>
      <trkpt lat="49.08905" lon="6.68422">
        <ele>335.16</ele>
        <time>2021-02-28T10:05:45Z</time>
      </trkpt>
      <trkpt lat="49.08933" lon="6.68451">
        <ele>332.75</ele>
        <time>2021-02-28T10:06:07Z</time>
      </trkpt>
      <trkpt lat="49.08957" lon="6.68484">
        <ele>330.35</ele>
        <time>2021-02-28T10:06:28Z</time>
      </trkpt>
      <trkpt lat="49.08975" lon="6.68524">
        <ele>328.91</ele>
        <time>2021-02-28T10:06:49Z</time>
      </trkpt>
      <trkpt lat="49.0899" lon="6.68564">
        <ele>326.5</ele>
        <time>2021-02-28T10:07:10Z</time>
      </trkpt>
      <trkpt lat="49.09001" lon="6.68606">
        <ele>324.58</ele>
        <time>2021-02-28T10:07:32Z</time>
      </trkpt>
      <trkpt lat="49.09009" lon="6.68651">
        <ele>322.18</ele>
        <time>2021-02-28T10:07:55Z</time>
      </trkpt>
      <trkpt lat="49.09013" lon="6.68705">
        <ele>320.26</ele>
        <time>2021-02-28T10:08:21Z</time>
      </trkpt>
      <trkpt lat="49.09011" lon="6.68762">
        <ele>319.3</ele>
        <time>2021-02-28T10:08:49Z</time>
      </trkpt>
      <trkpt lat="49.09006" lon="6.68821">
        <ele>318.33</ele>
        <time>2021-02-28T10:09:17Z</time>
      </trkpt>
      <trkpt lat="49.09004" lon="6.68854">
        <ele>317.85</ele>
        <time>2021-02-28T10:09:33Z</time>
      </trkpt>
      <trkpt lat="49.0901" lon="6.68862">
        <ele>317.85</ele>
        <time>2021-02-28T10:09:39Z</time>
      </trkpt>
      <trkpt lat="49.0904" lon="6.68865">
        <ele>319.3</ele>
        <time>2021-02-28T10:10:03Z</time>
      </trkpt>
      <trkpt lat="49.09062" lon="6.68873">
        <ele>320.26</ele>
        <time>2021-02-28T10:10:19Z</time>
      </trkpt>
      <trkpt lat="49.09089" lon="6.68878">
        <ele>321.22</ele>
        <time>2021-02-28T10:10:39Z</time>
      </trkpt>
      <trkpt lat="49.09089" lon="6.689">
        <ele>320.26</ele>
        <time>2021-02-28T10:10:52Z</time>
      </trkpt>
      <trkpt lat="49.09069" lon="6.68932">
        <ele>316.89</ele>
        <time>2021-02-28T10:11:14Z</time>
      </trkpt>
      <trkpt lat="49.09047" lon="6.68969">
        <ele>314.49</ele>
        <time>2021-02-28T10:11:38Z</time>
      </trkpt>
      <trkpt lat="49.09044" lon="6.68974">
        <ele>314.01</ele>
        <time>2021-02-28T10:11:42Z</time>
      </trkpt>
      <trkpt lat="49.09033" lon="6.69001">
        <ele>311.12</ele>
        <time>2021-02-28T10:12:02Z</time>
      </trkpt>
      <trkpt lat="49.09004" lon="6.69038">
        <ele>310.16</ele>
        <time>2021-02-28T10:12:23Z</time>
      </trkpt>
      <trkpt lat="49.08982" lon="6.69072">
        <ele>308.24</ele>
        <time>2021-02-28T10:12:45Z</time>
      </trkpt>
      <trkpt lat="49.08964" lon="6.69099">
        <ele>305.36</ele>
        <time>2021-02-28T10:13:05Z</time>
      </trkpt>
      <trkpt lat="49.08938" lon="6.69126">
        <ele>303.43</ele>
        <time>2021-02-28T10:13:26Z</time>
      </trkpt>
      <trkpt lat="49.08918" lon="6.6915">
        <ele>301.99</ele>
        <time>2021-02-28T10:13:43Z</time>
      </trkpt>
      <trkpt lat="49.08902" lon="6.69165">
        <ele>300.07</ele>
        <time>2021-02-28T10:13:56Z</time>
      </trkpt>
      <trkpt lat="49.0888" lon="6.69188">
        <ele>297.67</ele>
        <time>2021-02-28T10:14:15Z</time>
      </trkpt>
      <trkpt lat="49.08851" lon="6.69217">
        <ele>294.78</ele>
        <time>2021-02-28T10:14:39Z</time>
      </trkpt>
      <trkpt lat="49.08827" lon="6.69242">
        <ele>293.82</ele>
        <time>2021-02-28T10:14:58Z</time>
      </trkpt>
      <trkpt lat="49.08801" lon="6.69263">
        <ele>290.46</ele>
        <time>2021-02-28T10:15:19Z</time>
      </trkpt>
      <trkpt lat="49.08776" lon="6.69284">
        <ele>289.49</ele>
        <time>2021-02-28T10:15:39Z</time>
      </trkpt>
      <trkpt lat="49.08752" lon="6.69312">
        <ele>289.97</ele>
        <time>2021-02-28T10:16:02Z</time>
      </trkpt>
      <trkpt lat="49.08732" lon="6.69339">
        <ele>289.49</ele>
        <time>2021-02-28T10:16:22Z</time>
      </trkpt>
      <trkpt lat="49.08717" lon="6.69363">
        <ele>289.49</ele>
        <time>2021-02-28T10:16:40Z</time>
      </trkpt>
      <trkpt lat="49.08709" lon="6.69358">
        <ele>289.01</ele>
        <time>2021-02-28T10:16:55Z</time>
      </trkpt>
    </trkseg>
  </trk>
</gpx>